<?xml version="1.0" encoding="UTF-8" standalone="no" ?>
<gpx xmlns="http://www.topografix.com/GPX/1/1" xmlns:xsi="http://www.w3.org/2001/XMLSchema-instance" xsi:schemaLocation="http://www.topografix.com/GPX/1/1 http://www.topografix.com/GPX/1/1/gpx.xsd" version="1.1" creator="VisuGPX - https://www.visugpx.com">
  <metadata>
    <name>Mornac sur Seudre Visite du village</name>
    <desc><![CDATA[
Une courte découverte de ce ravissant village avant d'embarquer pour le train des mouettes]]></desc>
  </metadata>
  <trk>
    <name><![CDATA[SityTrail - Mornac sur Seudre Visite du village]]></name>
    <trkseg>
      <trkpt lat="45.70764" lon="-1.03091">
        <ele>4</ele>
        <time>2023-07-17T08:36:41.372+00:00</time>
      </trkpt>
      <trkpt lat="45.70762" lon="-1.03092">
        <ele>4</ele>
        <time>2023-07-17T08:36:57.126+00:00</time>
      </trkpt>
      <trkpt lat="45.70765" lon="-1.0309">
        <ele>4</ele>
        <time>2023-07-17T08:37:02.102+00:00</time>
      </trkpt>
      <trkpt lat="45.70766" lon="-1.03087">
        <ele>4</ele>
        <time>2023-07-17T08:37:07.119+00:00</time>
      </trkpt>
      <trkpt lat="45.70766" lon="-1.03085">
        <ele>4</ele>
        <time>2023-07-17T08:37:11.125+00:00</time>
      </trkpt>
      <trkpt lat="45.70769" lon="-1.03083">
        <ele>4</ele>
        <time>2023-07-17T08:37:16.097+00:00</time>
      </trkpt>
      <trkpt lat="45.70769" lon="-1.03083">
        <ele>4</ele>
        <time>2023-07-17T08:37:20.118+00:00</time>
      </trkpt>
      <trkpt lat="45.70765" lon="-1.03079">
        <ele>4</ele>
        <time>2023-07-17T08:37:24.124+00:00</time>
      </trkpt>
      <trkpt lat="45.70761" lon="-1.03074">
        <ele>4</ele>
        <time>2023-07-17T08:37:29.128+00:00</time>
      </trkpt>
      <trkpt lat="45.7076" lon="-1.03066">
        <ele>4</ele>
        <time>2023-07-17T08:37:34.034+00:00</time>
      </trkpt>
      <trkpt lat="45.70759" lon="-1.03061">
        <ele>4</ele>
        <time>2023-07-17T08:37:37.834+00:00</time>
      </trkpt>
      <trkpt lat="45.70756" lon="-1.03056">
        <ele>4</ele>
        <time>2023-07-17T08:37:42.456+00:00</time>
      </trkpt>
      <trkpt lat="45.70754" lon="-1.0305">
        <ele>4</ele>
        <time>2023-07-17T08:37:46.657+00:00</time>
      </trkpt>
      <trkpt lat="45.70753" lon="-1.03044">
        <ele>4</ele>
        <time>2023-07-17T08:37:50.718+00:00</time>
      </trkpt>
      <trkpt lat="45.70753" lon="-1.03038">
        <ele>4</ele>
        <time>2023-07-17T08:37:55.440+00:00</time>
      </trkpt>
      <trkpt lat="45.70751" lon="-1.03032">
        <ele>4</ele>
        <time>2023-07-17T08:38:00.001+00:00</time>
      </trkpt>
      <trkpt lat="45.70751" lon="-1.03025">
        <ele>4</ele>
        <time>2023-07-17T08:38:04.163+00:00</time>
      </trkpt>
      <trkpt lat="45.70752" lon="-1.03019">
        <ele>4</ele>
        <time>2023-07-17T08:38:08.785+00:00</time>
      </trkpt>
      <trkpt lat="45.70751" lon="-1.03013">
        <ele>5</ele>
        <time>2023-07-17T08:38:13.085+00:00</time>
      </trkpt>
      <trkpt lat="45.7075" lon="-1.03007">
        <ele>5</ele>
        <time>2023-07-17T08:38:17.585+00:00</time>
      </trkpt>
      <trkpt lat="45.70747" lon="-1.03002">
        <ele>5</ele>
        <time>2023-07-17T08:38:21.944+00:00</time>
      </trkpt>
      <trkpt lat="45.70744" lon="-1.02999">
        <ele>5</ele>
        <time>2023-07-17T08:38:25.804+00:00</time>
      </trkpt>
      <trkpt lat="45.70741" lon="-1.02995">
        <ele>5</ele>
        <time>2023-07-17T08:38:29.665+00:00</time>
      </trkpt>
      <trkpt lat="45.70737" lon="-1.02989">
        <ele>5</ele>
        <time>2023-07-17T08:38:34.004+00:00</time>
      </trkpt>
      <trkpt lat="45.70735" lon="-1.02984">
        <ele>5</ele>
        <time>2023-07-17T08:38:38.197+00:00</time>
      </trkpt>
      <trkpt lat="45.70731" lon="-1.02978">
        <ele>5</ele>
        <time>2023-07-17T08:38:42.545+00:00</time>
      </trkpt>
      <trkpt lat="45.70728" lon="-1.02971">
        <ele>5</ele>
        <time>2023-07-17T08:38:47.004+00:00</time>
      </trkpt>
      <trkpt lat="45.70726" lon="-1.02964">
        <ele>5</ele>
        <time>2023-07-17T08:38:51.185+00:00</time>
      </trkpt>
      <trkpt lat="45.70723" lon="-1.02958">
        <ele>5</ele>
        <time>2023-07-17T08:38:55.398+00:00</time>
      </trkpt>
      <trkpt lat="45.70722" lon="-1.02954">
        <ele>5</ele>
        <time>2023-07-17T08:38:58.093+00:00</time>
      </trkpt>
      <trkpt lat="45.70718" lon="-1.02945">
        <ele>5</ele>
        <time>2023-07-17T08:39:06.129+00:00</time>
      </trkpt>
      <trkpt lat="45.70716" lon="-1.02948">
        <ele>5</ele>
        <time>2023-07-17T08:39:10.242+00:00</time>
      </trkpt>
      <trkpt lat="45.70712" lon="-1.02943">
        <ele>5</ele>
        <time>2023-07-17T08:39:14.270+00:00</time>
      </trkpt>
      <trkpt lat="45.70708" lon="-1.0294">
        <ele>5</ele>
        <time>2023-07-17T08:39:18.783+00:00</time>
      </trkpt>
      <trkpt lat="45.70706" lon="-1.02938">
        <ele>5</ele>
        <time>2023-07-17T08:39:31.656+00:00</time>
      </trkpt>
      <trkpt lat="45.70709" lon="-1.02941">
        <ele>5</ele>
        <time>2023-07-17T08:39:36.670+00:00</time>
      </trkpt>
      <trkpt lat="45.7071" lon="-1.02941">
        <ele>5</ele>
        <time>2023-07-17T08:39:40.682+00:00</time>
      </trkpt>
      <trkpt lat="45.70711" lon="-1.0294">
        <ele>5</ele>
        <time>2023-07-17T08:39:44.695+00:00</time>
      </trkpt>
      <trkpt lat="45.70711" lon="-1.02935">
        <ele>5</ele>
        <time>2023-07-17T08:39:49.709+00:00</time>
      </trkpt>
      <trkpt lat="45.70708" lon="-1.02935">
        <ele>5</ele>
        <time>2023-07-17T08:40:38.071+00:00</time>
      </trkpt>
      <trkpt lat="45.70708" lon="-1.02935">
        <ele>5</ele>
        <time>2023-07-17T08:40:42.061+00:00</time>
      </trkpt>
      <trkpt lat="45.70708" lon="-1.02935">
        <ele>5</ele>
        <time>2023-07-17T08:40:47.066+00:00</time>
      </trkpt>
      <trkpt lat="45.70705" lon="-1.02935">
        <ele>5</ele>
        <time>2023-07-17T08:40:51.077+00:00</time>
      </trkpt>
      <trkpt lat="45.70696" lon="-1.02932">
        <ele>5</ele>
        <time>2023-07-17T08:40:56.060+00:00</time>
      </trkpt>
      <trkpt lat="45.70688" lon="-1.02936">
        <ele>5</ele>
        <time>2023-07-17T08:41:54.111+00:00</time>
      </trkpt>
      <trkpt lat="45.70689" lon="-1.02936">
        <ele>5</ele>
        <time>2023-07-17T08:41:58.626+00:00</time>
      </trkpt>
      <trkpt lat="45.70692" lon="-1.02937">
        <ele>5</ele>
        <time>2023-07-17T08:42:03.129+00:00</time>
      </trkpt>
      <trkpt lat="45.70695" lon="-1.02938">
        <ele>5</ele>
        <time>2023-07-17T08:42:07.635+00:00</time>
      </trkpt>
      <trkpt lat="45.70698" lon="-1.02939">
        <ele>5</ele>
        <time>2023-07-17T08:42:11.639+00:00</time>
      </trkpt>
      <trkpt lat="45.70701" lon="-1.0294">
        <ele>5</ele>
        <time>2023-07-17T08:42:21.278+00:00</time>
      </trkpt>
      <trkpt lat="45.70701" lon="-1.02938">
        <ele>5</ele>
        <time>2023-07-17T08:42:25.810+00:00</time>
      </trkpt>
      <trkpt lat="45.70702" lon="-1.02938">
        <ele>5</ele>
        <time>2023-07-17T08:42:30.326+00:00</time>
      </trkpt>
      <trkpt lat="45.70704" lon="-1.02935">
        <ele>5</ele>
        <time>2023-07-17T08:42:34.841+00:00</time>
      </trkpt>
      <trkpt lat="45.70709" lon="-1.02928">
        <ele>5</ele>
        <time>2023-07-17T08:42:39.857+00:00</time>
      </trkpt>
      <trkpt lat="45.70714" lon="-1.02919">
        <ele>5</ele>
        <time>2023-07-17T08:42:43.869+00:00</time>
      </trkpt>
      <trkpt lat="45.70719" lon="-1.02912">
        <ele>5</ele>
        <time>2023-07-17T08:42:48.386+00:00</time>
      </trkpt>
      <trkpt lat="45.70723" lon="-1.02906">
        <ele>5</ele>
        <time>2023-07-17T08:42:52.896+00:00</time>
      </trkpt>
      <trkpt lat="45.70728" lon="-1.02901">
        <ele>4</ele>
        <time>2023-07-17T08:42:56.903+00:00</time>
      </trkpt>
      <trkpt lat="45.7073" lon="-1.02895">
        <ele>4</ele>
        <time>2023-07-17T08:43:00.908+00:00</time>
      </trkpt>
      <trkpt lat="45.70732" lon="-1.02888">
        <ele>4</ele>
        <time>2023-07-17T08:43:05.412+00:00</time>
      </trkpt>
      <trkpt lat="45.70736" lon="-1.02881">
        <ele>4</ele>
        <time>2023-07-17T08:43:09.916+00:00</time>
      </trkpt>
      <trkpt lat="45.70739" lon="-1.02876">
        <ele>5</ele>
        <time>2023-07-17T08:43:13.920+00:00</time>
      </trkpt>
      <trkpt lat="45.70745" lon="-1.02876">
        <ele>5</ele>
        <time>2023-07-17T08:43:18.501+00:00</time>
      </trkpt>
      <trkpt lat="45.7075" lon="-1.02874">
        <ele>4</ele>
        <time>2023-07-17T08:43:22.981+00:00</time>
      </trkpt>
      <trkpt lat="45.70753" lon="-1.02868">
        <ele>4</ele>
        <time>2023-07-17T08:43:26.900+00:00</time>
      </trkpt>
      <trkpt lat="45.70754" lon="-1.02863">
        <ele>4</ele>
        <time>2023-07-17T08:43:31.219+00:00</time>
      </trkpt>
      <trkpt lat="45.70761" lon="-1.02858">
        <ele>4</ele>
        <time>2023-07-17T08:43:35.659+00:00</time>
      </trkpt>
      <trkpt lat="45.70765" lon="-1.02851">
        <ele>6</ele>
        <time>2023-07-17T08:43:40.758+00:00</time>
      </trkpt>
      <trkpt lat="45.7077" lon="-1.02848">
        <ele>6</ele>
        <time>2023-07-17T08:43:45.218+00:00</time>
      </trkpt>
      <trkpt lat="45.70774" lon="-1.02841">
        <ele>5</ele>
        <time>2023-07-17T08:43:49.679+00:00</time>
      </trkpt>
      <trkpt lat="45.70779" lon="-1.02839">
        <ele>5</ele>
        <time>2023-07-17T08:43:54.057+00:00</time>
      </trkpt>
      <trkpt lat="45.70784" lon="-1.02837">
        <ele>5</ele>
        <time>2023-07-17T08:43:58.438+00:00</time>
      </trkpt>
      <trkpt lat="45.70788" lon="-1.02832">
        <ele>5</ele>
        <time>2023-07-17T08:44:02.797+00:00</time>
      </trkpt>
      <trkpt lat="45.70792" lon="-1.02829">
        <ele>5</ele>
        <time>2023-07-17T08:44:06.856+00:00</time>
      </trkpt>
      <trkpt lat="45.7079" lon="-1.02835">
        <ele>5</ele>
        <time>2023-07-17T08:54:58.101+00:00</time>
      </trkpt>
      <trkpt lat="45.7079" lon="-1.02836">
        <ele>5</ele>
        <time>2023-07-17T08:55:02.106+00:00</time>
      </trkpt>
      <trkpt lat="45.7079" lon="-1.02836">
        <ele>5</ele>
        <time>2023-07-17T08:55:07.094+00:00</time>
      </trkpt>
      <trkpt lat="45.70789" lon="-1.02836">
        <ele>5</ele>
        <time>2023-07-17T08:55:12.096+00:00</time>
      </trkpt>
      <trkpt lat="45.70789" lon="-1.02836">
        <ele>5</ele>
        <time>2023-07-17T08:55:17.094+00:00</time>
      </trkpt>
      <trkpt lat="45.70789" lon="-1.02836">
        <ele>5</ele>
        <time>2023-07-17T09:02:04.097+00:00</time>
      </trkpt>
      <trkpt lat="45.7079" lon="-1.02836">
        <ele>5</ele>
        <time>2023-07-17T09:02:09.113+00:00</time>
      </trkpt>
      <trkpt lat="45.70792" lon="-1.02836">
        <ele>6</ele>
        <time>2023-07-17T09:02:14.111+00:00</time>
      </trkpt>
      <trkpt lat="45.70795" lon="-1.02838">
        <ele>6</ele>
        <time>2023-07-17T09:02:19.101+00:00</time>
      </trkpt>
      <trkpt lat="45.70798" lon="-1.02841">
        <ele>6</ele>
        <time>2023-07-17T09:02:24.121+00:00</time>
      </trkpt>
      <trkpt lat="45.70802" lon="-1.0284">
        <ele>6</ele>
        <time>2023-07-17T09:02:29.114+00:00</time>
      </trkpt>
      <trkpt lat="45.70805" lon="-1.02836">
        <ele>6</ele>
        <time>2023-07-17T09:02:34.119+00:00</time>
      </trkpt>
      <trkpt lat="45.70809" lon="-1.02831">
        <ele>6</ele>
        <time>2023-07-17T09:02:39.100+00:00</time>
      </trkpt>
      <trkpt lat="45.70812" lon="-1.02826">
        <ele>6</ele>
        <time>2023-07-17T09:02:44.099+00:00</time>
      </trkpt>
      <trkpt lat="45.70812" lon="-1.02824">
        <ele>6</ele>
        <time>2023-07-17T09:02:48.107+00:00</time>
      </trkpt>
      <trkpt lat="45.70817" lon="-1.02821">
        <ele>6</ele>
        <time>2023-07-17T09:02:53.111+00:00</time>
      </trkpt>
      <trkpt lat="45.7082" lon="-1.02814">
        <ele>6</ele>
        <time>2023-07-17T09:02:58.075+00:00</time>
      </trkpt>
      <trkpt lat="45.70823" lon="-1.02811">
        <ele>6</ele>
        <time>2023-07-17T09:03:01.885+00:00</time>
      </trkpt>
      <trkpt lat="45.70824" lon="-1.02808">
        <ele>6</ele>
        <time>2023-07-17T09:03:05.918+00:00</time>
      </trkpt>
      <trkpt lat="45.70825" lon="-1.02807">
        <ele>6</ele>
        <time>2023-07-17T09:03:10.939+00:00</time>
      </trkpt>
      <trkpt lat="45.70827" lon="-1.02799">
        <ele>6</ele>
        <time>2023-07-17T09:03:15.054+00:00</time>
      </trkpt>
      <trkpt lat="45.70826" lon="-1.02797">
        <ele>6</ele>
        <time>2023-07-17T09:03:19.569+00:00</time>
      </trkpt>
      <trkpt lat="45.70828" lon="-1.02794">
        <ele>6</ele>
        <time>2023-07-17T09:03:23.584+00:00</time>
      </trkpt>
      <trkpt lat="45.70835" lon="-1.02789">
        <ele>5</ele>
        <time>2023-07-17T09:03:50.789+00:00</time>
      </trkpt>
      <trkpt lat="45.70837" lon="-1.02785">
        <ele>5</ele>
        <time>2023-07-17T09:03:55.310+00:00</time>
      </trkpt>
      <trkpt lat="45.70841" lon="-1.02787">
        <ele>5</ele>
        <time>2023-07-17T09:03:59.325+00:00</time>
      </trkpt>
      <trkpt lat="45.70845" lon="-1.0279">
        <ele>5</ele>
        <time>2023-07-17T09:04:03.337+00:00</time>
      </trkpt>
      <trkpt lat="45.70849" lon="-1.02794">
        <ele>6</ele>
        <time>2023-07-17T09:04:07.853+00:00</time>
      </trkpt>
      <trkpt lat="45.70852" lon="-1.02797">
        <ele>6</ele>
        <time>2023-07-17T09:04:12.368+00:00</time>
      </trkpt>
      <trkpt lat="45.70857" lon="-1.02799">
        <ele>6</ele>
        <time>2023-07-17T09:04:16.882+00:00</time>
      </trkpt>
      <trkpt lat="45.70861" lon="-1.02802">
        <ele>6</ele>
        <time>2023-07-17T09:04:21.496+00:00</time>
      </trkpt>
      <trkpt lat="45.70864" lon="-1.02805">
        <ele>6</ele>
        <time>2023-07-17T09:04:25.526+00:00</time>
      </trkpt>
      <trkpt lat="45.70867" lon="-1.02808">
        <ele>6</ele>
        <time>2023-07-17T09:04:30.038+00:00</time>
      </trkpt>
      <trkpt lat="45.7087" lon="-1.02811">
        <ele>6</ele>
        <time>2023-07-17T09:04:34.553+00:00</time>
      </trkpt>
      <trkpt lat="45.70871" lon="-1.02815">
        <ele>6</ele>
        <time>2023-07-17T09:04:38.565+00:00</time>
      </trkpt>
      <trkpt lat="45.70875" lon="-1.02818">
        <ele>7</ele>
        <time>2023-07-17T09:04:43.079+00:00</time>
      </trkpt>
      <trkpt lat="45.70879" lon="-1.02819">
        <ele>7</ele>
        <time>2023-07-17T09:04:47.092+00:00</time>
      </trkpt>
      <trkpt lat="45.70883" lon="-1.02823">
        <ele>7</ele>
        <time>2023-07-17T09:04:51.606+00:00</time>
      </trkpt>
      <trkpt lat="45.70887" lon="-1.02826">
        <ele>7</ele>
        <time>2023-07-17T09:04:55.619+00:00</time>
      </trkpt>
      <trkpt lat="45.7089" lon="-1.02831">
        <ele>7</ele>
        <time>2023-07-17T09:05:00.134+00:00</time>
      </trkpt>
      <trkpt lat="45.70893" lon="-1.02834">
        <ele>7</ele>
        <time>2023-07-17T09:05:04.148+00:00</time>
      </trkpt>
      <trkpt lat="45.70895" lon="-1.02839">
        <ele>7</ele>
        <time>2023-07-17T09:05:08.763+00:00</time>
      </trkpt>
      <trkpt lat="45.70898" lon="-1.02842">
        <ele>7</ele>
        <time>2023-07-17T09:05:12.874+00:00</time>
      </trkpt>
      <trkpt lat="45.70901" lon="-1.02845">
        <ele>7</ele>
        <time>2023-07-17T09:05:16.985+00:00</time>
      </trkpt>
      <trkpt lat="45.70905" lon="-1.02846">
        <ele>9</ele>
        <time>2023-07-17T09:05:21.497+00:00</time>
      </trkpt>
      <trkpt lat="45.70909" lon="-1.02845">
        <ele>9</ele>
        <time>2023-07-17T09:05:25.517+00:00</time>
      </trkpt>
      <trkpt lat="45.70913" lon="-1.02841">
        <ele>9</ele>
        <time>2023-07-17T09:05:29.210+00:00</time>
      </trkpt>
      <trkpt lat="45.70916" lon="-1.02838">
        <ele>9</ele>
        <time>2023-07-17T09:05:33.715+00:00</time>
      </trkpt>
      <trkpt lat="45.70911" lon="-1.02834">
        <ele>9</ele>
        <time>2023-07-17T09:06:27.691+00:00</time>
      </trkpt>
      <trkpt lat="45.70916" lon="-1.02834">
        <ele>9</ele>
        <time>2023-07-17T09:06:31.571+00:00</time>
      </trkpt>
      <trkpt lat="45.70918" lon="-1.02835">
        <ele>9</ele>
        <time>2023-07-17T09:06:36.693+00:00</time>
      </trkpt>
      <trkpt lat="45.70919" lon="-1.02835">
        <ele>9</ele>
        <time>2023-07-17T09:06:40.775+00:00</time>
      </trkpt>
      <trkpt lat="45.70922" lon="-1.02845">
        <ele>9</ele>
        <time>2023-07-17T09:06:45.785+00:00</time>
      </trkpt>
      <trkpt lat="45.70924" lon="-1.02858">
        <ele>9</ele>
        <time>2023-07-17T09:07:06.882+00:00</time>
      </trkpt>
      <trkpt lat="45.70923" lon="-1.02859">
        <ele>9</ele>
        <time>2023-07-17T09:07:11.900+00:00</time>
      </trkpt>
      <trkpt lat="45.70922" lon="-1.02861">
        <ele>9</ele>
        <time>2023-07-17T09:07:15.914+00:00</time>
      </trkpt>
      <trkpt lat="45.70921" lon="-1.02862">
        <ele>9</ele>
        <time>2023-07-17T09:07:20.435+00:00</time>
      </trkpt>
      <trkpt lat="45.70917" lon="-1.02865">
        <ele>9</ele>
        <time>2023-07-17T09:07:24.951+00:00</time>
      </trkpt>
      <trkpt lat="45.70915" lon="-1.02866">
        <ele>9</ele>
        <time>2023-07-17T09:07:29.484+00:00</time>
      </trkpt>
      <trkpt lat="45.70917" lon="-1.02868">
        <ele>9</ele>
        <time>2023-07-17T09:07:33.499+00:00</time>
      </trkpt>
      <trkpt lat="45.70921" lon="-1.02867">
        <ele>9</ele>
        <time>2023-07-17T09:07:38.016+00:00</time>
      </trkpt>
      <trkpt lat="45.70926" lon="-1.02861">
        <ele>9</ele>
        <time>2023-07-17T09:07:43.034+00:00</time>
      </trkpt>
      <trkpt lat="45.70928" lon="-1.02857">
        <ele>9</ele>
        <time>2023-07-17T09:07:51.577+00:00</time>
      </trkpt>
      <trkpt lat="45.7093" lon="-1.02852">
        <ele>9</ele>
        <time>2023-07-17T09:07:55.594+00:00</time>
      </trkpt>
      <trkpt lat="45.70933" lon="-1.02852">
        <ele>10</ele>
        <time>2023-07-17T09:08:00.633+00:00</time>
      </trkpt>
      <trkpt lat="45.70933" lon="-1.02851">
        <ele>10</ele>
        <time>2023-07-17T09:08:02.639+00:00</time>
      </trkpt>
      <trkpt lat="45.70934" lon="-1.02842">
        <ele>10</ele>
        <time>2023-07-17T09:08:11.681+00:00</time>
      </trkpt>
      <trkpt lat="45.70934" lon="-1.02837">
        <ele>10</ele>
        <time>2023-07-17T09:08:15.691+00:00</time>
      </trkpt>
      <trkpt lat="45.70934" lon="-1.02831">
        <ele>10</ele>
        <time>2023-07-17T09:08:19.698+00:00</time>
      </trkpt>
      <trkpt lat="45.70936" lon="-1.02825">
        <ele>10</ele>
        <time>2023-07-17T09:08:23.705+00:00</time>
      </trkpt>
      <trkpt lat="45.70938" lon="-1.02822">
        <ele>10</ele>
        <time>2023-07-17T09:08:28.713+00:00</time>
      </trkpt>
      <trkpt lat="45.70939" lon="-1.02819">
        <ele>10</ele>
        <time>2023-07-17T09:08:33.233+00:00</time>
      </trkpt>
      <trkpt lat="45.70939" lon="-1.02814">
        <ele>10</ele>
        <time>2023-07-17T09:08:37.753+00:00</time>
      </trkpt>
      <trkpt lat="45.70942" lon="-1.02811">
        <ele>10</ele>
        <time>2023-07-17T09:08:41.768+00:00</time>
      </trkpt>
      <trkpt lat="45.70945" lon="-1.02808">
        <ele>10</ele>
        <time>2023-07-17T09:08:45.785+00:00</time>
      </trkpt>
      <trkpt lat="45.70949" lon="-1.02804">
        <ele>10</ele>
        <time>2023-07-17T09:09:12.908+00:00</time>
      </trkpt>
      <trkpt lat="45.7095" lon="-1.02802">
        <ele>10</ele>
        <time>2023-07-17T09:09:16.917+00:00</time>
      </trkpt>
      <trkpt lat="45.70954" lon="-1.02802">
        <ele>10</ele>
        <time>2023-07-17T09:09:20.924+00:00</time>
      </trkpt>
      <trkpt lat="45.70961" lon="-1.02802">
        <ele>11</ele>
        <time>2023-07-17T09:09:24.941+00:00</time>
      </trkpt>
      <trkpt lat="45.70963" lon="-1.02801">
        <ele>11</ele>
        <time>2023-07-17T09:09:28.960+00:00</time>
      </trkpt>
      <trkpt lat="45.70963" lon="-1.02801">
        <ele>11</ele>
        <time>2023-07-17T09:09:33.078+00:00</time>
      </trkpt>
      <trkpt lat="45.70965" lon="-1.02801">
        <ele>11</ele>
        <time>2023-07-17T09:09:37.700+00:00</time>
      </trkpt>
      <trkpt lat="45.7097" lon="-1.02798">
        <ele>11</ele>
        <time>2023-07-17T09:09:42.220+00:00</time>
      </trkpt>
      <trkpt lat="45.70973" lon="-1.02794">
        <ele>11</ele>
        <time>2023-07-17T09:09:46.237+00:00</time>
      </trkpt>
      <trkpt lat="45.70965" lon="-1.0278">
        <ele>12</ele>
        <time>2023-07-17T09:10:25.619+00:00</time>
      </trkpt>
      <trkpt lat="45.70964" lon="-1.0278">
        <ele>12</ele>
        <time>2023-07-17T09:10:30.139+00:00</time>
      </trkpt>
      <trkpt lat="45.70963" lon="-1.02779">
        <ele>12</ele>
        <time>2023-07-17T09:10:34.658+00:00</time>
      </trkpt>
      <trkpt lat="45.70962" lon="-1.02776">
        <ele>12</ele>
        <time>2023-07-17T09:10:39.179+00:00</time>
      </trkpt>
      <trkpt lat="45.70962" lon="-1.02772">
        <ele>12</ele>
        <time>2023-07-17T09:10:44.704+00:00</time>
      </trkpt>
      <trkpt lat="45.70963" lon="-1.02772">
        <ele>12</ele>
        <time>2023-07-17T09:10:48.719+00:00</time>
      </trkpt>
      <trkpt lat="45.70964" lon="-1.02773">
        <ele>12</ele>
        <time>2023-07-17T09:10:53.743+00:00</time>
      </trkpt>
      <trkpt lat="45.70968" lon="-1.02774">
        <ele>12</ele>
        <time>2023-07-17T09:10:57.854+00:00</time>
      </trkpt>
      <trkpt lat="45.70972" lon="-1.02776">
        <ele>12</ele>
        <time>2023-07-17T09:11:01.868+00:00</time>
      </trkpt>
      <trkpt lat="45.70974" lon="-1.02779">
        <ele>12</ele>
        <time>2023-07-17T09:13:00.378+00:00</time>
      </trkpt>
      <trkpt lat="45.70972" lon="-1.02783">
        <ele>12</ele>
        <time>2023-07-17T09:13:04.393+00:00</time>
      </trkpt>
      <trkpt lat="45.70969" lon="-1.02784">
        <ele>12</ele>
        <time>2023-07-17T09:13:08.909+00:00</time>
      </trkpt>
      <trkpt lat="45.70968" lon="-1.02784">
        <ele>12</ele>
        <time>2023-07-17T09:13:12.923+00:00</time>
      </trkpt>
      <trkpt lat="45.70968" lon="-1.02785">
        <ele>12</ele>
        <time>2023-07-17T09:13:17.439+00:00</time>
      </trkpt>
      <trkpt lat="45.70968" lon="-1.02781">
        <ele>12</ele>
        <time>2023-07-17T09:14:26.350+00:00</time>
      </trkpt>
      <trkpt lat="45.70972" lon="-1.02781">
        <ele>12</ele>
        <time>2023-07-17T09:14:30.955+00:00</time>
      </trkpt>
      <trkpt lat="45.70975" lon="-1.02778">
        <ele>12</ele>
        <time>2023-07-17T09:14:34.959+00:00</time>
      </trkpt>
      <trkpt lat="45.70977" lon="-1.02775">
        <ele>12</ele>
        <time>2023-07-17T09:14:38.982+00:00</time>
      </trkpt>
      <trkpt lat="45.70979" lon="-1.02773">
        <ele>12</ele>
        <time>2023-07-17T09:14:43.987+00:00</time>
      </trkpt>
      <trkpt lat="45.70976" lon="-1.02771">
        <ele>12</ele>
        <time>2023-07-17T09:14:52.496+00:00</time>
      </trkpt>
      <trkpt lat="45.70975" lon="-1.02767">
        <ele>12</ele>
        <time>2023-07-17T09:14:56.499+00:00</time>
      </trkpt>
      <trkpt lat="45.70975" lon="-1.02766">
        <ele>12</ele>
        <time>2023-07-17T09:14:59.001+00:00</time>
      </trkpt>
      <trkpt lat="45.70975" lon="-1.02764">
        <ele>12</ele>
        <time>2023-07-17T09:15:06.637+00:00</time>
      </trkpt>
      <trkpt lat="45.70974" lon="-1.0276">
        <ele>12</ele>
        <time>2023-07-17T09:15:10.651+00:00</time>
      </trkpt>
      <trkpt lat="45.70968" lon="-1.0275">
        <ele>12</ele>
        <time>2023-07-17T09:15:15.266+00:00</time>
      </trkpt>
      <trkpt lat="45.70968" lon="-1.02744">
        <ele>12</ele>
        <time>2023-07-17T09:15:19.380+00:00</time>
      </trkpt>
      <trkpt lat="45.70965" lon="-1.02738">
        <ele>12</ele>
        <time>2023-07-17T09:15:23.492+00:00</time>
      </trkpt>
      <trkpt lat="45.70961" lon="-1.0273">
        <ele>11</ele>
        <time>2023-07-17T09:15:28.004+00:00</time>
      </trkpt>
      <trkpt lat="45.7096" lon="-1.02727">
        <ele>11</ele>
        <time>2023-07-17T09:15:53.595+00:00</time>
      </trkpt>
      <trkpt lat="45.70965" lon="-1.02733">
        <ele>11</ele>
        <time>2023-07-17T09:15:58.114+00:00</time>
      </trkpt>
      <trkpt lat="45.70969" lon="-1.02739">
        <ele>12</ele>
        <time>2023-07-17T09:16:01.826+00:00</time>
      </trkpt>
      <trkpt lat="45.70971" lon="-1.02749">
        <ele>12</ele>
        <time>2023-07-17T09:16:06.344+00:00</time>
      </trkpt>
      <trkpt lat="45.70975" lon="-1.02757">
        <ele>12</ele>
        <time>2023-07-17T09:16:10.358+00:00</time>
      </trkpt>
      <trkpt lat="45.70983" lon="-1.02764">
        <ele>12</ele>
        <time>2023-07-17T09:16:32.935+00:00</time>
      </trkpt>
      <trkpt lat="45.70983" lon="-1.02766">
        <ele>12</ele>
        <time>2023-07-17T09:16:36.943+00:00</time>
      </trkpt>
      <trkpt lat="45.70986" lon="-1.02764">
        <ele>12</ele>
        <time>2023-07-17T09:16:40.949+00:00</time>
      </trkpt>
      <trkpt lat="45.70994" lon="-1.02754">
        <ele>11</ele>
        <time>2023-07-17T09:16:49.482+00:00</time>
      </trkpt>
      <trkpt lat="45.70997" lon="-1.0275">
        <ele>11</ele>
        <time>2023-07-17T09:16:53.992+00:00</time>
      </trkpt>
      <trkpt lat="45.71" lon="-1.02747">
        <ele>11</ele>
        <time>2023-07-17T09:16:58.004+00:00</time>
      </trkpt>
      <trkpt lat="45.71001" lon="-1.02749">
        <ele>11</ele>
        <time>2023-07-17T09:17:03.025+00:00</time>
      </trkpt>
      <trkpt lat="45.71001" lon="-1.02751">
        <ele>11</ele>
        <time>2023-07-17T09:17:07.144+00:00</time>
      </trkpt>
      <trkpt lat="45.71003" lon="-1.02756">
        <ele>11</ele>
        <time>2023-07-17T09:17:11.663+00:00</time>
      </trkpt>
      <trkpt lat="45.71006" lon="-1.02758">
        <ele>11</ele>
        <time>2023-07-17T09:17:15.678+00:00</time>
      </trkpt>
      <trkpt lat="45.71008" lon="-1.02758">
        <ele>11</ele>
        <time>2023-07-17T09:17:20.196+00:00</time>
      </trkpt>
      <trkpt lat="45.71009" lon="-1.02758">
        <ele>11</ele>
        <time>2023-07-17T09:17:24.715+00:00</time>
      </trkpt>
      <trkpt lat="45.71011" lon="-1.02758">
        <ele>11</ele>
        <time>2023-07-17T09:17:29.335+00:00</time>
      </trkpt>
      <trkpt lat="45.71016" lon="-1.0276">
        <ele>11</ele>
        <time>2023-07-17T09:17:33.855+00:00</time>
      </trkpt>
      <trkpt lat="45.71019" lon="-1.02762">
        <ele>11</ele>
        <time>2023-07-17T09:17:37.871+00:00</time>
      </trkpt>
      <trkpt lat="45.71018" lon="-1.02763">
        <ele>11</ele>
        <time>2023-07-17T09:17:41.889+00:00</time>
      </trkpt>
      <trkpt lat="45.71022" lon="-1.02765">
        <ele>11</ele>
        <time>2023-07-17T09:17:46.408+00:00</time>
      </trkpt>
      <trkpt lat="45.71028" lon="-1.02765">
        <ele>11</ele>
        <time>2023-07-17T09:17:50.425+00:00</time>
      </trkpt>
      <trkpt lat="45.71033" lon="-1.02766">
        <ele>11</ele>
        <time>2023-07-17T09:17:54.942+00:00</time>
      </trkpt>
      <trkpt lat="45.71037" lon="-1.02766">
        <ele>11</ele>
        <time>2023-07-17T09:17:58.958+00:00</time>
      </trkpt>
      <trkpt lat="45.71041" lon="-1.02764">
        <ele>11</ele>
        <time>2023-07-17T09:18:03.477+00:00</time>
      </trkpt>
      <trkpt lat="45.71044" lon="-1.02762">
        <ele>11</ele>
        <time>2023-07-17T09:18:07.493+00:00</time>
      </trkpt>
      <trkpt lat="45.71045" lon="-1.0276">
        <ele>11</ele>
        <time>2023-07-17T09:18:12.014+00:00</time>
      </trkpt>
      <trkpt lat="45.71046" lon="-1.02757">
        <ele>11</ele>
        <time>2023-07-17T09:18:16.533+00:00</time>
      </trkpt>
      <trkpt lat="45.71048" lon="-1.02753">
        <ele>11</ele>
        <time>2023-07-17T09:18:20.650+00:00</time>
      </trkpt>
      <trkpt lat="45.71052" lon="-1.02752">
        <ele>11</ele>
        <time>2023-07-17T09:18:25.169+00:00</time>
      </trkpt>
      <trkpt lat="45.71056" lon="-1.02752">
        <ele>11</ele>
        <time>2023-07-17T09:18:29.186+00:00</time>
      </trkpt>
      <trkpt lat="45.71059" lon="-1.02752">
        <ele>11</ele>
        <time>2023-07-17T09:18:33.704+00:00</time>
      </trkpt>
      <trkpt lat="45.71073" lon="-1.02743">
        <ele>8</ele>
        <time>2023-07-17T09:19:58.689+00:00</time>
      </trkpt>
      <trkpt lat="45.71075" lon="-1.02742">
        <ele>8</ele>
        <time>2023-07-17T09:20:02.804+00:00</time>
      </trkpt>
      <trkpt lat="45.71078" lon="-1.0274">
        <ele>8</ele>
        <time>2023-07-17T09:20:07.321+00:00</time>
      </trkpt>
      <trkpt lat="45.71081" lon="-1.02737">
        <ele>8</ele>
        <time>2023-07-17T09:20:11.337+00:00</time>
      </trkpt>
      <trkpt lat="45.71085" lon="-1.02734">
        <ele>7</ele>
        <time>2023-07-17T09:20:15.853+00:00</time>
      </trkpt>
      <trkpt lat="45.71089" lon="-1.0273">
        <ele>7</ele>
        <time>2023-07-17T09:20:20.370+00:00</time>
      </trkpt>
      <trkpt lat="45.71092" lon="-1.02726">
        <ele>7</ele>
        <time>2023-07-17T09:20:24.383+00:00</time>
      </trkpt>
      <trkpt lat="45.71095" lon="-1.02721">
        <ele>7</ele>
        <time>2023-07-17T09:20:28.899+00:00</time>
      </trkpt>
      <trkpt lat="45.71096" lon="-1.02719">
        <ele>7</ele>
        <time>2023-07-17T09:20:32.916+00:00</time>
      </trkpt>
      <trkpt lat="45.71102" lon="-1.02717">
        <ele>4</ele>
        <time>2023-07-17T09:20:41.950+00:00</time>
      </trkpt>
      <trkpt lat="45.71105" lon="-1.02715">
        <ele>4</ele>
        <time>2023-07-17T09:20:45.959+00:00</time>
      </trkpt>
      <trkpt lat="45.71106" lon="-1.02714">
        <ele>4</ele>
        <time>2023-07-17T09:20:50.968+00:00</time>
      </trkpt>
      <trkpt lat="45.71106" lon="-1.02714">
        <ele>4</ele>
        <time>2023-07-17T09:20:55.978+00:00</time>
      </trkpt>
      <trkpt lat="45.71106" lon="-1.02713">
        <ele>4</ele>
        <time>2023-07-17T09:20:59.986+00:00</time>
      </trkpt>
      <trkpt lat="45.71107" lon="-1.02713">
        <ele>4</ele>
        <time>2023-07-17T09:21:03.994+00:00</time>
      </trkpt>
      <trkpt lat="45.71107" lon="-1.0271">
        <ele>4</ele>
        <time>2023-07-17T09:21:08.101+00:00</time>
      </trkpt>
      <trkpt lat="45.71108" lon="-1.02703">
        <ele>2</ele>
        <time>2023-07-17T09:21:12.123+00:00</time>
      </trkpt>
      <trkpt lat="45.71109" lon="-1.02699">
        <ele>2</ele>
        <time>2023-07-17T09:21:16.630+00:00</time>
      </trkpt>
      <trkpt lat="45.71113" lon="-1.02693">
        <ele>2</ele>
        <time>2023-07-17T09:21:20.633+00:00</time>
      </trkpt>
      <trkpt lat="45.71116" lon="-1.02693">
        <ele>2</ele>
        <time>2023-07-17T09:21:25.136+00:00</time>
      </trkpt>
      <trkpt lat="45.71118" lon="-1.02695">
        <ele>2</ele>
        <time>2023-07-17T09:21:29.649+00:00</time>
      </trkpt>
      <trkpt lat="45.71119" lon="-1.02693">
        <ele>2</ele>
        <time>2023-07-17T09:21:34.665+00:00</time>
      </trkpt>
      <trkpt lat="45.71121" lon="-1.02686">
        <ele>2</ele>
        <time>2023-07-17T09:21:38.679+00:00</time>
      </trkpt>
      <trkpt lat="45.71124" lon="-1.02678">
        <ele>1</ele>
        <time>2023-07-17T09:21:43.192+00:00</time>
      </trkpt>
      <trkpt lat="45.71126" lon="-1.02672">
        <ele>3.2</ele>
        <time>2023-07-17T09:21:47.205+00:00</time>
      </trkpt>
      <trkpt lat="45.71127" lon="-1.02669">
        <ele>2.9</ele>
        <time>2023-07-17T09:21:51.820+00:00</time>
      </trkpt>
      <trkpt lat="45.71127" lon="-1.02664">
        <ele>3</ele>
        <time>2023-07-17T09:21:56.332+00:00</time>
      </trkpt>
      <trkpt lat="45.71129" lon="-1.02659">
        <ele>3.1</ele>
        <time>2023-07-17T09:22:00.844+00:00</time>
      </trkpt>
      <trkpt lat="45.71133" lon="-1.02654">
        <ele>3.2</ele>
        <time>2023-07-17T09:22:04.855+00:00</time>
      </trkpt>
      <trkpt lat="45.71135" lon="-1.02649">
        <ele>1</ele>
        <time>2023-07-17T09:22:09.369+00:00</time>
      </trkpt>
      <trkpt lat="45.71134" lon="-1.02642">
        <ele>1</ele>
        <time>2023-07-17T09:22:13.483+00:00</time>
      </trkpt>
      <trkpt lat="45.71131" lon="-1.02642">
        <ele>1</ele>
        <time>2023-07-17T09:22:22.015+00:00</time>
      </trkpt>
      <trkpt lat="45.71132" lon="-1.02641">
        <ele>1</ele>
        <time>2023-07-17T09:22:27.034+00:00</time>
      </trkpt>
      <trkpt lat="45.71133" lon="-1.0264">
        <ele>1</ele>
        <time>2023-07-17T09:22:31.050+00:00</time>
      </trkpt>
      <trkpt lat="45.71137" lon="-1.02637">
        <ele>1</ele>
        <time>2023-07-17T09:22:36.069+00:00</time>
      </trkpt>
      <trkpt lat="45.71142" lon="-1.02637">
        <ele>1</ele>
        <time>2023-07-17T09:22:39.783+00:00</time>
      </trkpt>
      <trkpt lat="45.71151" lon="-1.02635">
        <ele>1</ele>
        <time>2023-07-17T09:23:09.896+00:00</time>
      </trkpt>
      <trkpt lat="45.71155" lon="-1.02629">
        <ele>3.9</ele>
        <time>2023-07-17T09:23:14.415+00:00</time>
      </trkpt>
      <trkpt lat="45.71159" lon="-1.02623">
        <ele>3.8</ele>
        <time>2023-07-17T09:23:18.431+00:00</time>
      </trkpt>
      <trkpt lat="45.71161" lon="-1.02618">
        <ele>3.9</ele>
        <time>2023-07-17T09:23:22.950+00:00</time>
      </trkpt>
      <trkpt lat="45.71164" lon="-1.02613">
        <ele>3.9</ele>
        <time>2023-07-17T09:23:26.965+00:00</time>
      </trkpt>
      <trkpt lat="45.71165" lon="-1.02606">
        <ele>3.8</ele>
        <time>2023-07-17T09:23:31.480+00:00</time>
      </trkpt>
      <trkpt lat="45.71167" lon="-1.02599">
        <ele>3.5</ele>
        <time>2023-07-17T09:23:35.997+00:00</time>
      </trkpt>
      <trkpt lat="45.7117" lon="-1.02592">
        <ele>1</ele>
        <time>2023-07-17T09:23:41.016+00:00</time>
      </trkpt>
      <trkpt lat="45.71171" lon="-1.02588">
        <ele>1</ele>
        <time>2023-07-17T09:23:46.033+00:00</time>
      </trkpt>
      <trkpt lat="45.7117" lon="-1.02587">
        <ele>1</ele>
        <time>2023-07-17T09:24:59.922+00:00</time>
      </trkpt>
      <trkpt lat="45.71174" lon="-1.02583">
        <ele>1</ele>
        <time>2023-07-17T09:25:03.939+00:00</time>
      </trkpt>
      <trkpt lat="45.7118" lon="-1.02579">
        <ele>1</ele>
        <time>2023-07-17T09:25:08.958+00:00</time>
      </trkpt>
      <trkpt lat="45.71182" lon="-1.02573">
        <ele>2.3</ele>
        <time>2023-07-17T09:25:12.973+00:00</time>
      </trkpt>
      <trkpt lat="45.71184" lon="-1.02566">
        <ele>1</ele>
        <time>2023-07-17T09:25:17.590+00:00</time>
      </trkpt>
      <trkpt lat="45.71185" lon="-1.02563">
        <ele>1</ele>
        <time>2023-07-17T09:25:22.107+00:00</time>
      </trkpt>
      <trkpt lat="45.71188" lon="-1.02562">
        <ele>1</ele>
        <time>2023-07-17T09:25:26.142+00:00</time>
      </trkpt>
      <trkpt lat="45.7119" lon="-1.02556">
        <ele>1</ele>
        <time>2023-07-17T09:25:30.660+00:00</time>
      </trkpt>
      <trkpt lat="45.71193" lon="-1.02556">
        <ele>1</ele>
        <time>2023-07-17T09:25:35.171+00:00</time>
      </trkpt>
      <trkpt lat="45.71195" lon="-1.0255">
        <ele>1</ele>
        <time>2023-07-17T09:25:39.679+00:00</time>
      </trkpt>
      <trkpt lat="45.71198" lon="-1.02544">
        <ele>1</ele>
        <time>2023-07-17T09:25:44.185+00:00</time>
      </trkpt>
      <trkpt lat="45.71201" lon="-1.02539">
        <ele>1</ele>
        <time>2023-07-17T09:25:48.691+00:00</time>
      </trkpt>
      <trkpt lat="45.71204" lon="-1.02536">
        <ele>1</ele>
        <time>2023-07-17T09:25:52.696+00:00</time>
      </trkpt>
      <trkpt lat="45.71206" lon="-1.02535">
        <ele>1</ele>
        <time>2023-07-17T09:25:57.715+00:00</time>
      </trkpt>
      <trkpt lat="45.71206" lon="-1.02534">
        <ele>1</ele>
        <time>2023-07-17T09:26:01.730+00:00</time>
      </trkpt>
      <trkpt lat="45.71206" lon="-1.02533">
        <ele>1</ele>
        <time>2023-07-17T09:26:06.248+00:00</time>
      </trkpt>
      <trkpt lat="45.7121" lon="-1.02527">
        <ele>1.9</ele>
        <time>2023-07-17T09:26:10.263+00:00</time>
      </trkpt>
      <trkpt lat="45.71214" lon="-1.0252">
        <ele>2</ele>
        <time>2023-07-17T09:26:14.781+00:00</time>
      </trkpt>
      <trkpt lat="45.71219" lon="-1.02514">
        <ele>2.1</ele>
        <time>2023-07-17T09:26:19.381+00:00</time>
      </trkpt>
      <trkpt lat="45.71221" lon="-1.02508">
        <ele>1</ele>
        <time>2023-07-17T09:26:23.414+00:00</time>
      </trkpt>
      <trkpt lat="45.71224" lon="-1.02502">
        <ele>1</ele>
        <time>2023-07-17T09:26:27.431+00:00</time>
      </trkpt>
      <trkpt lat="45.71225" lon="-1.02496">
        <ele>1</ele>
        <time>2023-07-17T09:26:31.446+00:00</time>
      </trkpt>
      <trkpt lat="45.71229" lon="-1.02491">
        <ele>1</ele>
        <time>2023-07-17T09:26:35.964+00:00</time>
      </trkpt>
      <trkpt lat="45.71232" lon="-1.02486">
        <ele>1</ele>
        <time>2023-07-17T09:26:39.977+00:00</time>
      </trkpt>
      <trkpt lat="45.71235" lon="-1.02479">
        <ele>2</ele>
        <time>2023-07-17T09:26:44.988+00:00</time>
      </trkpt>
      <trkpt lat="45.71238" lon="-1.02475">
        <ele>2</ele>
        <time>2023-07-17T09:26:48.997+00:00</time>
      </trkpt>
      <trkpt lat="45.71241" lon="-1.02469">
        <ele>2</ele>
        <time>2023-07-17T09:26:53.506+00:00</time>
      </trkpt>
      <trkpt lat="45.71243" lon="-1.02463">
        <ele>2</ele>
        <time>2023-07-17T09:26:57.511+00:00</time>
      </trkpt>
      <trkpt lat="45.71246" lon="-1.02458">
        <ele>2</ele>
        <time>2023-07-17T09:27:01.517+00:00</time>
      </trkpt>
      <trkpt lat="45.71249" lon="-1.02453">
        <ele>2</ele>
        <time>2023-07-17T09:27:06.023+00:00</time>
      </trkpt>
      <trkpt lat="45.71253" lon="-1.02451">
        <ele>2</ele>
        <time>2023-07-17T09:27:10.036+00:00</time>
      </trkpt>
      <trkpt lat="45.71253" lon="-1.02453">
        <ele>2</ele>
        <time>2023-07-17T09:27:15.055+00:00</time>
      </trkpt>
      <trkpt lat="45.71251" lon="-1.0246">
        <ele>2</ele>
        <time>2023-07-17T09:27:20.073+00:00</time>
      </trkpt>
      <trkpt lat="45.71247" lon="-1.02465">
        <ele>2</ele>
        <time>2023-07-17T09:27:25.088+00:00</time>
      </trkpt>
      <trkpt lat="45.71246" lon="-1.02466">
        <ele>2</ele>
        <time>2023-07-17T09:27:28.601+00:00</time>
      </trkpt>
      <trkpt lat="45.71245" lon="-1.02467">
        <ele>2</ele>
        <time>2023-07-17T09:27:33.117+00:00</time>
      </trkpt>
      <trkpt lat="45.71244" lon="-1.02471">
        <ele>2</ele>
        <time>2023-07-17T09:27:37.131+00:00</time>
      </trkpt>
      <trkpt lat="45.7124" lon="-1.02477">
        <ele>2</ele>
        <time>2023-07-17T09:27:41.143+00:00</time>
      </trkpt>
      <trkpt lat="45.71237" lon="-1.02482">
        <ele>2</ele>
        <time>2023-07-17T09:27:45.658+00:00</time>
      </trkpt>
      <trkpt lat="45.71233" lon="-1.02487">
        <ele>1</ele>
        <time>2023-07-17T09:27:49.672+00:00</time>
      </trkpt>
      <trkpt lat="45.71231" lon="-1.02491">
        <ele>1</ele>
        <time>2023-07-17T09:27:54.190+00:00</time>
      </trkpt>
      <trkpt lat="45.71228" lon="-1.02496">
        <ele>1</ele>
        <time>2023-07-17T09:27:58.706+00:00</time>
      </trkpt>
      <trkpt lat="45.71229" lon="-1.02504">
        <ele>1</ele>
        <time>2023-07-17T09:28:03.225+00:00</time>
      </trkpt>
      <trkpt lat="45.71227" lon="-1.02512">
        <ele>1</ele>
        <time>2023-07-17T09:28:07.741+00:00</time>
      </trkpt>
      <trkpt lat="45.71224" lon="-1.02517">
        <ele>1.8</ele>
        <time>2023-07-17T09:28:11.757+00:00</time>
      </trkpt>
      <trkpt lat="45.7122" lon="-1.02512">
        <ele>1</ele>
        <time>2023-07-17T09:28:16.775+00:00</time>
      </trkpt>
      <trkpt lat="45.71213" lon="-1.02523">
        <ele>1.9</ele>
        <time>2023-07-17T09:28:37.869+00:00</time>
      </trkpt>
      <trkpt lat="45.71212" lon="-1.02522">
        <ele>2</ele>
        <time>2023-07-17T09:28:42.384+00:00</time>
      </trkpt>
      <trkpt lat="45.71212" lon="-1.02523">
        <ele>2</ele>
        <time>2023-07-17T09:28:46.900+00:00</time>
      </trkpt>
      <trkpt lat="45.71211" lon="-1.02523">
        <ele>2</ele>
        <time>2023-07-17T09:28:50.918+00:00</time>
      </trkpt>
      <trkpt lat="45.7121" lon="-1.02526">
        <ele>1.9</ele>
        <time>2023-07-17T09:28:55.939+00:00</time>
      </trkpt>
      <trkpt lat="45.71208" lon="-1.02531">
        <ele>2</ele>
        <time>2023-07-17T09:29:00.460+00:00</time>
      </trkpt>
      <trkpt lat="45.71203" lon="-1.02536">
        <ele>1</ele>
        <time>2023-07-17T09:29:04.475+00:00</time>
      </trkpt>
      <trkpt lat="45.71199" lon="-1.02543">
        <ele>1</ele>
        <time>2023-07-17T09:29:08.993+00:00</time>
      </trkpt>
      <trkpt lat="45.71195" lon="-1.0255">
        <ele>1</ele>
        <time>2023-07-17T09:29:13.527+00:00</time>
      </trkpt>
      <trkpt lat="45.71191" lon="-1.02556">
        <ele>1</ele>
        <time>2023-07-17T09:29:17.642+00:00</time>
      </trkpt>
      <trkpt lat="45.71188" lon="-1.02561">
        <ele>1</ele>
        <time>2023-07-17T09:29:21.656+00:00</time>
      </trkpt>
      <trkpt lat="45.71186" lon="-1.02567">
        <ele>1</ele>
        <time>2023-07-17T09:29:25.670+00:00</time>
      </trkpt>
      <trkpt lat="45.71184" lon="-1.02572">
        <ele>2.2</ele>
        <time>2023-07-17T09:29:29.785+00:00</time>
      </trkpt>
      <trkpt lat="45.71181" lon="-1.02578">
        <ele>2.2</ele>
        <time>2023-07-17T09:29:33.801+00:00</time>
      </trkpt>
      <trkpt lat="45.71179" lon="-1.02583">
        <ele>1</ele>
        <time>2023-07-17T09:29:37.816+00:00</time>
      </trkpt>
      <trkpt lat="45.71175" lon="-1.02588">
        <ele>1</ele>
        <time>2023-07-17T09:29:42.833+00:00</time>
      </trkpt>
      <trkpt lat="45.71174" lon="-1.02589">
        <ele>1</ele>
        <time>2023-07-17T09:29:46.844+00:00</time>
      </trkpt>
      <trkpt lat="45.71172" lon="-1.0259">
        <ele>1</ele>
        <time>2023-07-17T09:30:05.915+00:00</time>
      </trkpt>
      <trkpt lat="45.71171" lon="-1.02589">
        <ele>1</ele>
        <time>2023-07-17T09:30:10.432+00:00</time>
      </trkpt>
      <trkpt lat="45.71167" lon="-1.026">
        <ele>3.6</ele>
        <time>2023-07-17T09:30:14.946+00:00</time>
      </trkpt>
      <trkpt lat="45.71163" lon="-1.02605">
        <ele>3.7</ele>
        <time>2023-07-17T09:30:18.955+00:00</time>
      </trkpt>
      <trkpt lat="45.71161" lon="-1.02608">
        <ele>3.7</ele>
        <time>2023-07-17T09:30:22.962+00:00</time>
      </trkpt>
      <trkpt lat="45.71158" lon="-1.02612">
        <ele>3.7</ele>
        <time>2023-07-17T09:30:27.068+00:00</time>
      </trkpt>
      <trkpt lat="45.71155" lon="-1.02619">
        <ele>3.7</ele>
        <time>2023-07-17T09:30:32.074+00:00</time>
      </trkpt>
      <trkpt lat="45.71152" lon="-1.02625">
        <ele>1</ele>
        <time>2023-07-17T09:30:36.582+00:00</time>
      </trkpt>
      <trkpt lat="45.71149" lon="-1.02629">
        <ele>1</ele>
        <time>2023-07-17T09:30:41.088+00:00</time>
      </trkpt>
      <trkpt lat="45.71146" lon="-1.02635">
        <ele>1</ele>
        <time>2023-07-17T09:30:45.593+00:00</time>
      </trkpt>
      <trkpt lat="45.71145" lon="-1.02638">
        <ele>1</ele>
        <time>2023-07-17T09:30:47.594+00:00</time>
      </trkpt>
      <trkpt lat="45.71139" lon="-1.02644">
        <ele>1</ele>
        <time>2023-07-17T09:30:55.232+00:00</time>
      </trkpt>
      <trkpt lat="45.71134" lon="-1.02647">
        <ele>1</ele>
        <time>2023-07-17T09:30:59.242+00:00</time>
      </trkpt>
      <trkpt lat="45.71132" lon="-1.02653">
        <ele>1</ele>
        <time>2023-07-17T09:31:03.754+00:00</time>
      </trkpt>
      <trkpt lat="45.71133" lon="-1.02657">
        <ele>3</ele>
        <time>2023-07-17T09:31:07.768+00:00</time>
      </trkpt>
      <trkpt lat="45.71132" lon="-1.02665">
        <ele>2.5</ele>
        <time>2023-07-17T09:31:12.285+00:00</time>
      </trkpt>
      <trkpt lat="45.71131" lon="-1.02673">
        <ele>2.9</ele>
        <time>2023-07-17T09:31:16.299+00:00</time>
      </trkpt>
      <trkpt lat="45.71129" lon="-1.02679">
        <ele>3.3</ele>
        <time>2023-07-17T09:31:20.312+00:00</time>
      </trkpt>
      <trkpt lat="45.71124" lon="-1.0268">
        <ele>1</ele>
        <time>2023-07-17T09:31:24.828+00:00</time>
      </trkpt>
      <trkpt lat="45.71122" lon="-1.02682">
        <ele>2</ele>
        <time>2023-07-17T09:31:28.841+00:00</time>
      </trkpt>
      <trkpt lat="45.71119" lon="-1.02687">
        <ele>2</ele>
        <time>2023-07-17T09:31:33.858+00:00</time>
      </trkpt>
      <trkpt lat="45.71118" lon="-1.02686">
        <ele>2</ele>
        <time>2023-07-17T09:31:38.875+00:00</time>
      </trkpt>
      <trkpt lat="45.71116" lon="-1.02689">
        <ele>2</ele>
        <time>2023-07-17T09:31:43.891+00:00</time>
      </trkpt>
      <trkpt lat="45.71116" lon="-1.02689">
        <ele>2</ele>
        <time>2023-07-17T09:31:47.905+00:00</time>
      </trkpt>
      <trkpt lat="45.71115" lon="-1.02689">
        <ele>2</ele>
        <time>2023-07-17T09:31:51.915+00:00</time>
      </trkpt>
      <trkpt lat="45.71113" lon="-1.02697">
        <ele>2</ele>
        <time>2023-07-17T09:31:57.030+00:00</time>
      </trkpt>
      <trkpt lat="45.71111" lon="-1.02704">
        <ele>2</ele>
        <time>2023-07-17T09:32:01.044+00:00</time>
      </trkpt>
      <trkpt lat="45.71108" lon="-1.02711">
        <ele>4</ele>
        <time>2023-07-17T09:32:05.558+00:00</time>
      </trkpt>
      <trkpt lat="45.71106" lon="-1.02717">
        <ele>4</ele>
        <time>2023-07-17T09:32:09.670+00:00</time>
      </trkpt>
      <trkpt lat="45.71107" lon="-1.02723">
        <ele>4</ele>
        <time>2023-07-17T09:32:14.182+00:00</time>
      </trkpt>
      <trkpt lat="45.71109" lon="-1.02729">
        <ele>4</ele>
        <time>2023-07-17T09:32:18.697+00:00</time>
      </trkpt>
      <trkpt lat="45.7111" lon="-1.02731">
        <ele>4</ele>
        <time>2023-07-17T09:32:22.711+00:00</time>
      </trkpt>
      <trkpt lat="45.71111" lon="-1.02733">
        <ele>4</ele>
        <time>2023-07-17T09:32:27.227+00:00</time>
      </trkpt>
      <trkpt lat="45.71113" lon="-1.0274">
        <ele>5</ele>
        <time>2023-07-17T09:32:31.743+00:00</time>
      </trkpt>
      <trkpt lat="45.71113" lon="-1.02747">
        <ele>5</ele>
        <time>2023-07-17T09:32:36.259+00:00</time>
      </trkpt>
      <trkpt lat="45.71112" lon="-1.02757">
        <ele>5</ele>
        <time>2023-07-17T09:32:44.889+00:00</time>
      </trkpt>
      <trkpt lat="45.71111" lon="-1.02756">
        <ele>5</ele>
        <time>2023-07-17T09:32:48.903+00:00</time>
      </trkpt>
      <trkpt lat="45.71111" lon="-1.02758">
        <ele>5</ele>
        <time>2023-07-17T09:32:53.928+00:00</time>
      </trkpt>
      <trkpt lat="45.71114" lon="-1.02766">
        <ele>6</ele>
        <time>2023-07-17T09:32:58.940+00:00</time>
      </trkpt>
      <trkpt lat="45.71117" lon="-1.02768">
        <ele>6</ele>
        <time>2023-07-17T09:33:03.460+00:00</time>
      </trkpt>
      <trkpt lat="45.7112" lon="-1.0277">
        <ele>6</ele>
        <time>2023-07-17T09:33:07.967+00:00</time>
      </trkpt>
      <trkpt lat="45.71124" lon="-1.02774">
        <ele>6</ele>
        <time>2023-07-17T09:33:12.472+00:00</time>
      </trkpt>
      <trkpt lat="45.71128" lon="-1.02778">
        <ele>4</ele>
        <time>2023-07-17T09:33:16.977+00:00</time>
      </trkpt>
      <trkpt lat="45.7113" lon="-1.02784">
        <ele>4</ele>
        <time>2023-07-17T09:33:20.980+00:00</time>
      </trkpt>
      <trkpt lat="45.71134" lon="-1.02788">
        <ele>4</ele>
        <time>2023-07-17T09:33:25.183+00:00</time>
      </trkpt>
      <trkpt lat="45.71136" lon="-1.02796">
        <ele>4</ele>
        <time>2023-07-17T09:33:29.685+00:00</time>
      </trkpt>
      <trkpt lat="45.71137" lon="-1.02802">
        <ele>4</ele>
        <time>2023-07-17T09:33:33.746+00:00</time>
      </trkpt>
      <trkpt lat="45.7114" lon="-1.02808">
        <ele>4</ele>
        <time>2023-07-17T09:33:37.787+00:00</time>
      </trkpt>
      <trkpt lat="45.71145" lon="-1.02811">
        <ele>4</ele>
        <time>2023-07-17T09:33:42.289+00:00</time>
      </trkpt>
      <trkpt lat="45.71147" lon="-1.02819">
        <ele>4</ele>
        <time>2023-07-17T09:33:46.871+00:00</time>
      </trkpt>
      <trkpt lat="45.71148" lon="-1.02824">
        <ele>3</ele>
        <time>2023-07-17T09:33:50.873+00:00</time>
      </trkpt>
      <trkpt lat="45.71151" lon="-1.0283">
        <ele>3</ele>
        <time>2023-07-17T09:33:54.934+00:00</time>
      </trkpt>
      <trkpt lat="45.71153" lon="-1.02836">
        <ele>3</ele>
        <time>2023-07-17T09:33:58.937+00:00</time>
      </trkpt>
      <trkpt lat="45.71151" lon="-1.0284">
        <ele>3</ele>
        <time>2023-07-17T09:34:03.480+00:00</time>
      </trkpt>
      <trkpt lat="45.7115" lon="-1.02845">
        <ele>3</ele>
        <time>2023-07-17T09:34:08.014+00:00</time>
      </trkpt>
      <trkpt lat="45.71149" lon="-1.0285">
        <ele>3</ele>
        <time>2023-07-17T09:34:12.109+00:00</time>
      </trkpt>
      <trkpt lat="45.71145" lon="-1.02862">
        <ele>3</ele>
        <time>2023-07-17T09:35:06.091+00:00</time>
      </trkpt>
      <trkpt lat="45.71146" lon="-1.02863">
        <ele>3</ele>
        <time>2023-07-17T09:35:11.089+00:00</time>
      </trkpt>
      <trkpt lat="45.71146" lon="-1.02865">
        <ele>3</ele>
        <time>2023-07-17T09:35:15.107+00:00</time>
      </trkpt>
      <trkpt lat="45.71144" lon="-1.02871">
        <ele>3</ele>
        <time>2023-07-17T09:35:19.411+00:00</time>
      </trkpt>
      <trkpt lat="45.71141" lon="-1.02878">
        <ele>3</ele>
        <time>2023-07-17T09:35:23.919+00:00</time>
      </trkpt>
      <trkpt lat="45.7114" lon="-1.02886">
        <ele>3</ele>
        <time>2023-07-17T09:35:27.619+00:00</time>
      </trkpt>
      <trkpt lat="45.71136" lon="-1.02891">
        <ele>3</ele>
        <time>2023-07-17T09:35:32.626+00:00</time>
      </trkpt>
      <trkpt lat="45.71135" lon="-1.02898">
        <ele>3</ele>
        <time>2023-07-17T09:35:36.630+00:00</time>
      </trkpt>
      <trkpt lat="45.71132" lon="-1.02906">
        <ele>3</ele>
        <time>2023-07-17T09:35:40.691+00:00</time>
      </trkpt>
      <trkpt lat="45.71128" lon="-1.02911">
        <ele>3</ele>
        <time>2023-07-17T09:35:44.839+00:00</time>
      </trkpt>
      <trkpt lat="45.71126" lon="-1.02915">
        <ele>3</ele>
        <time>2023-07-17T09:35:48.816+00:00</time>
      </trkpt>
      <trkpt lat="45.71125" lon="-1.0292">
        <ele>3</ele>
        <time>2023-07-17T09:35:53.195+00:00</time>
      </trkpt>
      <trkpt lat="45.71125" lon="-1.02927">
        <ele>5</ele>
        <time>2023-07-17T09:35:57.691+00:00</time>
      </trkpt>
      <trkpt lat="45.71123" lon="-1.02934">
        <ele>5</ele>
        <time>2023-07-17T09:36:02.494+00:00</time>
      </trkpt>
      <trkpt lat="45.7112" lon="-1.0294">
        <ele>5</ele>
        <time>2023-07-17T09:36:06.794+00:00</time>
      </trkpt>
      <trkpt lat="45.71116" lon="-1.02942">
        <ele>5</ele>
        <time>2023-07-17T09:36:10.798+00:00</time>
      </trkpt>
      <trkpt lat="45.71113" lon="-1.02946">
        <ele>5</ele>
        <time>2023-07-17T09:36:14.800+00:00</time>
      </trkpt>
      <trkpt lat="45.71109" lon="-1.02957">
        <ele>5</ele>
        <time>2023-07-17T09:36:23.327+00:00</time>
      </trkpt>
      <trkpt lat="45.71104" lon="-1.0296">
        <ele>5</ele>
        <time>2023-07-17T09:36:28.338+00:00</time>
      </trkpt>
      <trkpt lat="45.711" lon="-1.02962">
        <ele>5</ele>
        <time>2023-07-17T09:36:32.845+00:00</time>
      </trkpt>
      <trkpt lat="45.71097" lon="-1.02964">
        <ele>6</ele>
        <time>2023-07-17T09:36:36.851+00:00</time>
      </trkpt>
      <trkpt lat="45.71097" lon="-1.02969">
        <ele>6</ele>
        <time>2023-07-17T09:36:40.954+00:00</time>
      </trkpt>
      <trkpt lat="45.71098" lon="-1.02971">
        <ele>5</ele>
        <time>2023-07-17T09:36:45.960+00:00</time>
      </trkpt>
      <trkpt lat="45.71099" lon="-1.02975">
        <ele>5</ele>
        <time>2023-07-17T09:36:49.963+00:00</time>
      </trkpt>
      <trkpt lat="45.71101" lon="-1.02983">
        <ele>5</ele>
        <time>2023-07-17T09:36:54.965+00:00</time>
      </trkpt>
      <trkpt lat="45.71102" lon="-1.02984">
        <ele>5</ele>
        <time>2023-07-17T09:36:55.465+00:00</time>
      </trkpt>
      <trkpt lat="45.71101" lon="-1.02994">
        <ele>5</ele>
        <time>2023-07-17T09:37:03.989+00:00</time>
      </trkpt>
      <trkpt lat="45.71099" lon="-1.02997">
        <ele>5</ele>
        <time>2023-07-17T09:37:08.504+00:00</time>
      </trkpt>
      <trkpt lat="45.711" lon="-1.02998">
        <ele>5</ele>
        <time>2023-07-17T09:37:12.518+00:00</time>
      </trkpt>
      <trkpt lat="45.71102" lon="-1.03001">
        <ele>5</ele>
        <time>2023-07-17T09:37:17.038+00:00</time>
      </trkpt>
      <trkpt lat="45.71107" lon="-1.03008">
        <ele>5</ele>
        <time>2023-07-17T09:37:22.048+00:00</time>
      </trkpt>
      <trkpt lat="45.71109" lon="-1.03018">
        <ele>5</ele>
        <time>2023-07-17T09:37:26.053+00:00</time>
      </trkpt>
      <trkpt lat="45.7111" lon="-1.03026">
        <ele>5</ele>
        <time>2023-07-17T09:37:30.055+00:00</time>
      </trkpt>
      <trkpt lat="45.7111" lon="-1.03034">
        <ele>5</ele>
        <time>2023-07-17T09:37:34.597+00:00</time>
      </trkpt>
      <trkpt lat="45.7111" lon="-1.0304">
        <ele>5</ele>
        <time>2023-07-17T09:37:38.639+00:00</time>
      </trkpt>
      <trkpt lat="45.71112" lon="-1.03048">
        <ele>5</ele>
        <time>2023-07-17T09:37:43.753+00:00</time>
      </trkpt>
      <trkpt lat="45.71115" lon="-1.03053">
        <ele>5</ele>
        <time>2023-07-17T09:37:47.845+00:00</time>
      </trkpt>
      <trkpt lat="45.71119" lon="-1.03055">
        <ele>5</ele>
        <time>2023-07-17T09:37:52.025+00:00</time>
      </trkpt>
      <trkpt lat="45.71123" lon="-1.03051">
        <ele>5</ele>
        <time>2023-07-17T09:37:56.026+00:00</time>
      </trkpt>
      <trkpt lat="45.71127" lon="-1.0305">
        <ele>4</ele>
        <time>2023-07-17T09:38:00.647+00:00</time>
      </trkpt>
      <trkpt lat="45.71131" lon="-1.03046">
        <ele>4</ele>
        <time>2023-07-17T09:38:04.649+00:00</time>
      </trkpt>
      <trkpt lat="45.71137" lon="-1.03046">
        <ele>4</ele>
        <time>2023-07-17T09:38:22.593+00:00</time>
      </trkpt>
      <trkpt lat="45.7113" lon="-1.0305">
        <ele>4</ele>
        <time>2023-07-17T09:38:27.108+00:00</time>
      </trkpt>
      <trkpt lat="45.71125" lon="-1.03051">
        <ele>5</ele>
        <time>2023-07-17T09:38:31.120+00:00</time>
      </trkpt>
      <trkpt lat="45.7112" lon="-1.03052">
        <ele>5</ele>
        <time>2023-07-17T09:38:35.636+00:00</time>
      </trkpt>
      <trkpt lat="45.71115" lon="-1.03054">
        <ele>5</ele>
        <time>2023-07-17T09:38:40.164+00:00</time>
      </trkpt>
      <trkpt lat="45.71113" lon="-1.03059">
        <ele>5</ele>
        <time>2023-07-17T09:38:44.675+00:00</time>
      </trkpt>
      <trkpt lat="45.71116" lon="-1.03063">
        <ele>5</ele>
        <time>2023-07-17T09:38:48.687+00:00</time>
      </trkpt>
      <trkpt lat="45.71118" lon="-1.03062">
        <ele>5</ele>
        <time>2023-07-17T09:38:53.232+00:00</time>
      </trkpt>
      <trkpt lat="45.71118" lon="-1.03071">
        <ele>6</ele>
        <time>2023-07-17T09:38:57.751+00:00</time>
      </trkpt>
      <trkpt lat="45.7112" lon="-1.03081">
        <ele>6</ele>
        <time>2023-07-17T09:39:11.772+00:00</time>
      </trkpt>
      <trkpt lat="45.71118" lon="-1.03076">
        <ele>6</ele>
        <time>2023-07-17T09:39:15.877+00:00</time>
      </trkpt>
      <trkpt lat="45.71115" lon="-1.0307">
        <ele>6</ele>
        <time>2023-07-17T09:39:20.380+00:00</time>
      </trkpt>
      <trkpt lat="45.71113" lon="-1.03065">
        <ele>5</ele>
        <time>2023-07-17T09:39:24.883+00:00</time>
      </trkpt>
      <trkpt lat="45.71111" lon="-1.03057">
        <ele>5</ele>
        <time>2023-07-17T09:39:28.886+00:00</time>
      </trkpt>
      <trkpt lat="45.71109" lon="-1.0305">
        <ele>5</ele>
        <time>2023-07-17T09:39:33.390+00:00</time>
      </trkpt>
      <trkpt lat="45.71108" lon="-1.03044">
        <ele>5</ele>
        <time>2023-07-17T09:39:37.432+00:00</time>
      </trkpt>
      <trkpt lat="45.71108" lon="-1.03037">
        <ele>5</ele>
        <time>2023-07-17T09:39:41.454+00:00</time>
      </trkpt>
      <trkpt lat="45.71107" lon="-1.0303">
        <ele>5</ele>
        <time>2023-07-17T09:39:45.996+00:00</time>
      </trkpt>
      <trkpt lat="45.71105" lon="-1.03024">
        <ele>5</ele>
        <time>2023-07-17T09:39:50.115+00:00</time>
      </trkpt>
      <trkpt lat="45.71104" lon="-1.03019">
        <ele>5</ele>
        <time>2023-07-17T09:39:53.835+00:00</time>
      </trkpt>
      <trkpt lat="45.71103" lon="-1.03012">
        <ele>5</ele>
        <time>2023-07-17T09:39:58.556+00:00</time>
      </trkpt>
      <trkpt lat="45.71102" lon="-1.03006">
        <ele>5</ele>
        <time>2023-07-17T09:40:02.756+00:00</time>
      </trkpt>
      <trkpt lat="45.711" lon="-1.02999">
        <ele>5</ele>
        <time>2023-07-17T09:40:07.617+00:00</time>
      </trkpt>
      <trkpt lat="45.71097" lon="-1.02996">
        <ele>6</ele>
        <time>2023-07-17T09:40:12.279+00:00</time>
      </trkpt>
      <trkpt lat="45.71093" lon="-1.02997">
        <ele>6</ele>
        <time>2023-07-17T09:40:16.280+00:00</time>
      </trkpt>
      <trkpt lat="45.71088" lon="-1.03">
        <ele>6</ele>
        <time>2023-07-17T09:40:20.442+00:00</time>
      </trkpt>
      <trkpt lat="45.71083" lon="-1.03004">
        <ele>6</ele>
        <time>2023-07-17T09:40:24.944+00:00</time>
      </trkpt>
      <trkpt lat="45.71078" lon="-1.03006">
        <ele>6</ele>
        <time>2023-07-17T09:40:28.947+00:00</time>
      </trkpt>
      <trkpt lat="45.71073" lon="-1.03007">
        <ele>6</ele>
        <time>2023-07-17T09:40:32.970+00:00</time>
      </trkpt>
      <trkpt lat="45.71068" lon="-1.03008">
        <ele>7</ele>
        <time>2023-07-17T09:40:37.330+00:00</time>
      </trkpt>
      <trkpt lat="45.71064" lon="-1.0301">
        <ele>7</ele>
        <time>2023-07-17T09:40:41.833+00:00</time>
      </trkpt>
      <trkpt lat="45.7106" lon="-1.03012">
        <ele>7</ele>
        <time>2023-07-17T09:40:45.836+00:00</time>
      </trkpt>
      <trkpt lat="45.71055" lon="-1.03014">
        <ele>8</ele>
        <time>2023-07-17T09:40:50.756+00:00</time>
      </trkpt>
      <trkpt lat="45.71051" lon="-1.03014">
        <ele>8</ele>
        <time>2023-07-17T09:40:54.759+00:00</time>
      </trkpt>
      <trkpt lat="45.71049" lon="-1.03018">
        <ele>8</ele>
        <time>2023-07-17T09:40:59.080+00:00</time>
      </trkpt>
      <trkpt lat="45.71047" lon="-1.03024">
        <ele>8</ele>
        <time>2023-07-17T09:41:03.582+00:00</time>
      </trkpt>
      <trkpt lat="45.71046" lon="-1.0303">
        <ele>8</ele>
        <time>2023-07-17T09:41:08.743+00:00</time>
      </trkpt>
      <trkpt lat="45.71043" lon="-1.03035">
        <ele>8</ele>
        <time>2023-07-17T09:41:12.984+00:00</time>
      </trkpt>
      <trkpt lat="45.71045" lon="-1.03041">
        <ele>8</ele>
        <time>2023-07-17T09:41:17.106+00:00</time>
      </trkpt>
      <trkpt lat="45.71048" lon="-1.03044">
        <ele>8</ele>
        <time>2023-07-17T09:41:21.247+00:00</time>
      </trkpt>
      <trkpt lat="45.71046" lon="-1.03054">
        <ele>8</ele>
        <time>2023-07-17T09:41:25.889+00:00</time>
      </trkpt>
      <trkpt lat="45.71045" lon="-1.0306">
        <ele>8</ele>
        <time>2023-07-17T09:41:29.891+00:00</time>
      </trkpt>
      <trkpt lat="45.71046" lon="-1.03067">
        <ele>8</ele>
        <time>2023-07-17T09:41:34.494+00:00</time>
      </trkpt>
      <trkpt lat="45.71045" lon="-1.03075">
        <ele>9</ele>
        <time>2023-07-17T09:41:38.496+00:00</time>
      </trkpt>
      <trkpt lat="45.71044" lon="-1.03083">
        <ele>9</ele>
        <time>2023-07-17T09:41:43.691+00:00</time>
      </trkpt>
      <trkpt lat="45.71042" lon="-1.03091">
        <ele>9</ele>
        <time>2023-07-17T09:41:47.899+00:00</time>
      </trkpt>
      <trkpt lat="45.71041" lon="-1.03097">
        <ele>8</ele>
        <time>2023-07-17T09:41:52.221+00:00</time>
      </trkpt>
      <trkpt lat="45.7104" lon="-1.03103">
        <ele>9</ele>
        <time>2023-07-17T09:41:56.197+00:00</time>
      </trkpt>
      <trkpt lat="45.71039" lon="-1.03109">
        <ele>9</ele>
        <time>2023-07-17T09:42:00.837+00:00</time>
      </trkpt>
      <trkpt lat="45.71037" lon="-1.03114">
        <ele>9</ele>
        <time>2023-07-17T09:42:04.716+00:00</time>
      </trkpt>
      <trkpt lat="45.71033" lon="-1.03114">
        <ele>9</ele>
        <time>2023-07-17T09:42:08.778+00:00</time>
      </trkpt>
      <trkpt lat="45.71028" lon="-1.03116">
        <ele>9</ele>
        <time>2023-07-17T09:42:13.822+00:00</time>
      </trkpt>
      <trkpt lat="45.71024" lon="-1.0311">
        <ele>9</ele>
        <time>2023-07-17T09:42:17.523+00:00</time>
      </trkpt>
      <trkpt lat="45.71023" lon="-1.03102">
        <ele>9</ele>
        <time>2023-07-17T09:42:22.026+00:00</time>
      </trkpt>
      <trkpt lat="45.71023" lon="-1.03095">
        <ele>8</ele>
        <time>2023-07-17T09:42:26.068+00:00</time>
      </trkpt>
      <trkpt lat="45.71024" lon="-1.03091">
        <ele>8</ele>
        <time>2023-07-17T09:42:30.303+00:00</time>
      </trkpt>
      <trkpt lat="45.71022" lon="-1.03086">
        <ele>8</ele>
        <time>2023-07-17T09:42:34.956+00:00</time>
      </trkpt>
      <trkpt lat="45.71019" lon="-1.03084">
        <ele>8</ele>
        <time>2023-07-17T09:42:38.970+00:00</time>
      </trkpt>
      <trkpt lat="45.71017" lon="-1.03084">
        <ele>8</ele>
        <time>2023-07-17T09:42:42.983+00:00</time>
      </trkpt>
      <trkpt lat="45.71014" lon="-1.0308">
        <ele>8</ele>
        <time>2023-07-17T09:42:46.994+00:00</time>
      </trkpt>
      <trkpt lat="45.71011" lon="-1.03075">
        <ele>7</ele>
        <time>2023-07-17T09:42:51.505+00:00</time>
      </trkpt>
      <trkpt lat="45.71009" lon="-1.03071">
        <ele>7</ele>
        <time>2023-07-17T09:42:55.615+00:00</time>
      </trkpt>
      <trkpt lat="45.71005" lon="-1.03069">
        <ele>7</ele>
        <time>2023-07-17T09:43:00.727+00:00</time>
      </trkpt>
      <trkpt lat="45.71004" lon="-1.03066">
        <ele>7</ele>
        <time>2023-07-17T09:43:05.236+00:00</time>
      </trkpt>
      <trkpt lat="45.71001" lon="-1.0306">
        <ele>7</ele>
        <time>2023-07-17T09:43:09.775+00:00</time>
      </trkpt>
      <trkpt lat="45.70999" lon="-1.03055">
        <ele>7</ele>
        <time>2023-07-17T09:43:13.872+00:00</time>
      </trkpt>
      <trkpt lat="45.70995" lon="-1.03049">
        <ele>7</ele>
        <time>2023-07-17T09:43:18.381+00:00</time>
      </trkpt>
      <trkpt lat="45.70992" lon="-1.03044">
        <ele>7</ele>
        <time>2023-07-17T09:43:22.389+00:00</time>
      </trkpt>
      <trkpt lat="45.7099" lon="-1.03039">
        <ele>7</ele>
        <time>2023-07-17T09:43:26.900+00:00</time>
      </trkpt>
      <trkpt lat="45.70989" lon="-1.03034">
        <ele>7</ele>
        <time>2023-07-17T09:43:30.914+00:00</time>
      </trkpt>
      <trkpt lat="45.70986" lon="-1.03029">
        <ele>9</ele>
        <time>2023-07-17T09:43:35.562+00:00</time>
      </trkpt>
      <trkpt lat="45.70983" lon="-1.03024">
        <ele>9</ele>
        <time>2023-07-17T09:43:39.224+00:00</time>
      </trkpt>
      <trkpt lat="45.7098" lon="-1.03019">
        <ele>9</ele>
        <time>2023-07-17T09:43:43.729+00:00</time>
      </trkpt>
      <trkpt lat="45.70977" lon="-1.03017">
        <ele>9</ele>
        <time>2023-07-17T09:43:48.335+00:00</time>
      </trkpt>
      <trkpt lat="45.70973" lon="-1.03015">
        <ele>9</ele>
        <time>2023-07-17T09:43:52.839+00:00</time>
      </trkpt>
      <trkpt lat="45.70968" lon="-1.03014">
        <ele>9</ele>
        <time>2023-07-17T09:43:57.342+00:00</time>
      </trkpt>
      <trkpt lat="45.70962" lon="-1.03017">
        <ele>9</ele>
        <time>2023-07-17T09:44:01.847+00:00</time>
      </trkpt>
      <trkpt lat="45.70958" lon="-1.03019">
        <ele>9</ele>
        <time>2023-07-17T09:44:06.353+00:00</time>
      </trkpt>
      <trkpt lat="45.70953" lon="-1.03021">
        <ele>9</ele>
        <time>2023-07-17T09:44:10.855+00:00</time>
      </trkpt>
      <trkpt lat="45.7095" lon="-1.03022">
        <ele>9</ele>
        <time>2023-07-17T09:44:14.877+00:00</time>
      </trkpt>
      <trkpt lat="45.70945" lon="-1.03024">
        <ele>9</ele>
        <time>2023-07-17T09:44:19.380+00:00</time>
      </trkpt>
      <trkpt lat="45.70942" lon="-1.03026">
        <ele>9</ele>
        <time>2023-07-17T09:44:23.883+00:00</time>
      </trkpt>
      <trkpt lat="45.70939" lon="-1.03026">
        <ele>9</ele>
        <time>2023-07-17T09:44:27.886+00:00</time>
      </trkpt>
      <trkpt lat="45.70936" lon="-1.03029">
        <ele>9</ele>
        <time>2023-07-17T09:44:31.889+00:00</time>
      </trkpt>
      <trkpt lat="45.70932" lon="-1.03034">
        <ele>9</ele>
        <time>2023-07-17T09:44:35.891+00:00</time>
      </trkpt>
      <trkpt lat="45.70928" lon="-1.03038">
        <ele>7</ele>
        <time>2023-07-17T09:44:40.572+00:00</time>
      </trkpt>
      <trkpt lat="45.70924" lon="-1.03041">
        <ele>7</ele>
        <time>2023-07-17T09:44:44.654+00:00</time>
      </trkpt>
      <trkpt lat="45.70919" lon="-1.03045">
        <ele>6</ele>
        <time>2023-07-17T09:44:49.297+00:00</time>
      </trkpt>
      <trkpt lat="45.70915" lon="-1.03048">
        <ele>6</ele>
        <time>2023-07-17T09:44:53.800+00:00</time>
      </trkpt>
      <trkpt lat="45.70912" lon="-1.03051">
        <ele>6</ele>
        <time>2023-07-17T09:44:58.342+00:00</time>
      </trkpt>
      <trkpt lat="45.70909" lon="-1.03055">
        <ele>6</ele>
        <time>2023-07-17T09:45:02.483+00:00</time>
      </trkpt>
      <trkpt lat="45.70906" lon="-1.03059">
        <ele>6</ele>
        <time>2023-07-17T09:45:06.486+00:00</time>
      </trkpt>
      <trkpt lat="45.70901" lon="-1.03058">
        <ele>6</ele>
        <time>2023-07-17T09:45:10.488+00:00</time>
      </trkpt>
      <trkpt lat="45.70898" lon="-1.03054">
        <ele>6</ele>
        <time>2023-07-17T09:45:14.669+00:00</time>
      </trkpt>
      <trkpt lat="45.70895" lon="-1.0305">
        <ele>6</ele>
        <time>2023-07-17T09:45:19.310+00:00</time>
      </trkpt>
      <trkpt lat="45.70891" lon="-1.03046">
        <ele>6</ele>
        <time>2023-07-17T09:45:23.570+00:00</time>
      </trkpt>
      <trkpt lat="45.70887" lon="-1.03043">
        <ele>6</ele>
        <time>2023-07-17T09:45:28.251+00:00</time>
      </trkpt>
      <trkpt lat="45.70884" lon="-1.0304">
        <ele>7</ele>
        <time>2023-07-17T09:45:32.211+00:00</time>
      </trkpt>
      <trkpt lat="45.7088" lon="-1.03035">
        <ele>7</ele>
        <time>2023-07-17T09:45:36.972+00:00</time>
      </trkpt>
      <trkpt lat="45.70877" lon="-1.03031">
        <ele>7</ele>
        <time>2023-07-17T09:45:41.072+00:00</time>
      </trkpt>
      <trkpt lat="45.70873" lon="-1.03027">
        <ele>7</ele>
        <time>2023-07-17T09:45:45.313+00:00</time>
      </trkpt>
      <trkpt lat="45.7087" lon="-1.03022">
        <ele>7</ele>
        <time>2023-07-17T09:45:49.474+00:00</time>
      </trkpt>
      <trkpt lat="45.70867" lon="-1.03017">
        <ele>7</ele>
        <time>2023-07-17T09:45:54.076+00:00</time>
      </trkpt>
      <trkpt lat="45.70865" lon="-1.03011">
        <ele>7</ele>
        <time>2023-07-17T09:45:58.278+00:00</time>
      </trkpt>
      <trkpt lat="45.70861" lon="-1.03008">
        <ele>7</ele>
        <time>2023-07-17T09:46:02.920+00:00</time>
      </trkpt>
      <trkpt lat="45.70857" lon="-1.03005">
        <ele>7</ele>
        <time>2023-07-17T09:46:07.524+00:00</time>
      </trkpt>
      <trkpt lat="45.70856" lon="-1.02997">
        <ele>7</ele>
        <time>2023-07-17T09:46:11.526+00:00</time>
      </trkpt>
      <trkpt lat="45.70858" lon="-1.02991">
        <ele>7</ele>
        <time>2023-07-17T09:46:15.529+00:00</time>
      </trkpt>
      <trkpt lat="45.70861" lon="-1.02986">
        <ele>7</ele>
        <time>2023-07-17T09:46:20.031+00:00</time>
      </trkpt>
      <trkpt lat="45.70862" lon="-1.0298">
        <ele>7</ele>
        <time>2023-07-17T09:46:24.034+00:00</time>
      </trkpt>
      <trkpt lat="45.70867" lon="-1.02975">
        <ele>7</ele>
        <time>2023-07-17T09:46:28.537+00:00</time>
      </trkpt>
      <trkpt lat="45.70871" lon="-1.02972">
        <ele>7</ele>
        <time>2023-07-17T09:46:33.040+00:00</time>
      </trkpt>
      <trkpt lat="45.70873" lon="-1.02968">
        <ele>7</ele>
        <time>2023-07-17T09:46:37.044+00:00</time>
      </trkpt>
      <trkpt lat="45.70872" lon="-1.02963">
        <ele>7</ele>
        <time>2023-07-17T09:46:41.548+00:00</time>
      </trkpt>
      <trkpt lat="45.7087" lon="-1.02958">
        <ele>7</ele>
        <time>2023-07-17T09:46:46.052+00:00</time>
      </trkpt>
      <trkpt lat="45.70867" lon="-1.02953">
        <ele>7</ele>
        <time>2023-07-17T09:46:50.156+00:00</time>
      </trkpt>
      <trkpt lat="45.70865" lon="-1.02949">
        <ele>7</ele>
        <time>2023-07-17T09:46:54.691+00:00</time>
      </trkpt>
      <trkpt lat="45.70862" lon="-1.02945">
        <ele>7</ele>
        <time>2023-07-17T09:46:58.740+00:00</time>
      </trkpt>
      <trkpt lat="45.70863" lon="-1.02939">
        <ele>7</ele>
        <time>2023-07-17T09:47:07.778+00:00</time>
      </trkpt>
      <trkpt lat="45.70863" lon="-1.02934">
        <ele>7</ele>
        <time>2023-07-17T09:47:11.879+00:00</time>
      </trkpt>
      <trkpt lat="45.70866" lon="-1.0293">
        <ele>7</ele>
        <time>2023-07-17T09:47:16.899+00:00</time>
      </trkpt>
      <trkpt lat="45.70867" lon="-1.02929">
        <ele>7</ele>
        <time>2023-07-17T09:47:20.914+00:00</time>
      </trkpt>
      <trkpt lat="45.70868" lon="-1.02924">
        <ele>7</ele>
        <time>2023-07-17T09:47:24.927+00:00</time>
      </trkpt>
      <trkpt lat="45.70872" lon="-1.02917">
        <ele>7</ele>
        <time>2023-07-17T09:47:29.442+00:00</time>
      </trkpt>
      <trkpt lat="45.70876" lon="-1.02912">
        <ele>8</ele>
        <time>2023-07-17T09:47:33.955+00:00</time>
      </trkpt>
      <trkpt lat="45.70878" lon="-1.0291">
        <ele>8</ele>
        <time>2023-07-17T09:47:37.969+00:00</time>
      </trkpt>
      <trkpt lat="45.7088" lon="-1.02911">
        <ele>8</ele>
        <time>2023-07-17T09:47:41.984+00:00</time>
      </trkpt>
      <trkpt lat="45.70883" lon="-1.02904">
        <ele>8</ele>
        <time>2023-07-17T09:47:46.503+00:00</time>
      </trkpt>
      <trkpt lat="45.70889" lon="-1.02899">
        <ele>8</ele>
        <time>2023-07-17T09:47:50.517+00:00</time>
      </trkpt>
      <trkpt lat="45.70893" lon="-1.02894">
        <ele>8</ele>
        <time>2023-07-17T09:47:55.031+00:00</time>
      </trkpt>
      <trkpt lat="45.70896" lon="-1.02889">
        <ele>8</ele>
        <time>2023-07-17T09:47:59.546+00:00</time>
      </trkpt>
      <trkpt lat="45.709" lon="-1.02886">
        <ele>8</ele>
        <time>2023-07-17T09:48:03.576+00:00</time>
      </trkpt>
      <trkpt lat="45.70902" lon="-1.02882">
        <ele>8</ele>
        <time>2023-07-17T09:48:08.092+00:00</time>
      </trkpt>
      <trkpt lat="45.70905" lon="-1.02878">
        <ele>8</ele>
        <time>2023-07-17T09:48:12.607+00:00</time>
      </trkpt>
      <trkpt lat="45.70909" lon="-1.02878">
        <ele>8</ele>
        <time>2023-07-17T09:48:17.123+00:00</time>
      </trkpt>
      <trkpt lat="45.70902" lon="-1.02862">
        <ele>8</ele>
        <time>2023-07-17T09:49:11.075+00:00</time>
      </trkpt>
      <trkpt lat="45.70902" lon="-1.02861">
        <ele>8</ele>
        <time>2023-07-17T09:49:16.063+00:00</time>
      </trkpt>
      <trkpt lat="45.70902" lon="-1.0286">
        <ele>8</ele>
        <time>2023-07-17T09:49:21.065+00:00</time>
      </trkpt>
      <trkpt lat="45.70901" lon="-1.02858">
        <ele>8</ele>
        <time>2023-07-17T09:49:25.058+00:00</time>
      </trkpt>
      <trkpt lat="45.70896" lon="-1.02857">
        <ele>8</ele>
        <time>2023-07-17T09:49:30.063+00:00</time>
      </trkpt>
      <trkpt lat="45.709" lon="-1.02863">
        <ele>8</ele>
        <time>2023-07-17T09:50:29.780+00:00</time>
      </trkpt>
      <trkpt lat="45.70902" lon="-1.02862">
        <ele>8</ele>
        <time>2023-07-17T09:50:35.064+00:00</time>
      </trkpt>
      <trkpt lat="45.70905" lon="-1.02859">
        <ele>9</ele>
        <time>2023-07-17T09:50:39.056+00:00</time>
      </trkpt>
      <trkpt lat="45.70908" lon="-1.02857">
        <ele>9</ele>
        <time>2023-07-17T09:50:43.059+00:00</time>
      </trkpt>
      <trkpt lat="45.70913" lon="-1.02858">
        <ele>9</ele>
        <time>2023-07-17T09:50:48.058+00:00</time>
      </trkpt>
      <trkpt lat="45.70914" lon="-1.02859">
        <ele>9</ele>
        <time>2023-07-17T09:53:11.098+00:00</time>
      </trkpt>
      <trkpt lat="45.70913" lon="-1.02859">
        <ele>9</ele>
        <time>2023-07-17T09:53:16.086+00:00</time>
      </trkpt>
      <trkpt lat="45.70907" lon="-1.02855">
        <ele>9</ele>
        <time>2023-07-17T09:53:20.855+00:00</time>
      </trkpt>
      <trkpt lat="45.70902" lon="-1.02849">
        <ele>8</ele>
        <time>2023-07-17T09:53:24.976+00:00</time>
      </trkpt>
      <trkpt lat="45.70901" lon="-1.02848">
        <ele>8</ele>
        <time>2023-07-17T09:53:29.678+00:00</time>
      </trkpt>
      <trkpt lat="45.709" lon="-1.02853">
        <ele>8</ele>
        <time>2023-07-17T09:53:56.912+00:00</time>
      </trkpt>
      <trkpt lat="45.7091" lon="-1.02858">
        <ele>9</ele>
        <time>2023-07-17T09:54:01.471+00:00</time>
      </trkpt>
      <trkpt lat="45.70914" lon="-1.02857">
        <ele>9</ele>
        <time>2023-07-17T09:54:05.691+00:00</time>
      </trkpt>
      <trkpt lat="45.70917" lon="-1.02854">
        <ele>9</ele>
        <time>2023-07-17T09:54:10.073+00:00</time>
      </trkpt>
      <trkpt lat="45.70922" lon="-1.02849">
        <ele>9</ele>
        <time>2023-07-17T09:54:13.834+00:00</time>
      </trkpt>
      <trkpt lat="45.70923" lon="-1.0285">
        <ele>9</ele>
        <time>2023-07-17T09:56:17.691+00:00</time>
      </trkpt>
      <trkpt lat="45.70923" lon="-1.02855">
        <ele>9</ele>
        <time>2023-07-17T09:56:21.678+00:00</time>
      </trkpt>
      <trkpt lat="45.7092" lon="-1.02859">
        <ele>9</ele>
        <time>2023-07-17T09:56:25.874+00:00</time>
      </trkpt>
      <trkpt lat="45.70917" lon="-1.02862">
        <ele>9</ele>
        <time>2023-07-17T09:56:30.403+00:00</time>
      </trkpt>
      <trkpt lat="45.70913" lon="-1.02864">
        <ele>9</ele>
        <time>2023-07-17T09:56:34.506+00:00</time>
      </trkpt>
      <trkpt lat="45.70913" lon="-1.02862">
        <ele>9</ele>
        <time>2023-07-17T09:56:56.622+00:00</time>
      </trkpt>
      <trkpt lat="45.70914" lon="-1.02863">
        <ele>9</ele>
        <time>2023-07-17T09:57:01.074+00:00</time>
      </trkpt>
      <trkpt lat="45.70916" lon="-1.02858">
        <ele>9</ele>
        <time>2023-07-17T09:57:06.067+00:00</time>
      </trkpt>
      <trkpt lat="45.70916" lon="-1.02837">
        <ele>9</ele>
        <time>2023-07-17T09:57:11.062+00:00</time>
      </trkpt>
      <trkpt lat="45.70917" lon="-1.02825">
        <ele>9</ele>
        <time>2023-07-17T09:57:16.060+00:00</time>
      </trkpt>
      <trkpt lat="45.70918" lon="-1.02819">
        <ele>9</ele>
        <time>2023-07-17T09:57:20.068+00:00</time>
      </trkpt>
      <trkpt lat="45.7092" lon="-1.02819">
        <ele>9</ele>
        <time>2023-07-17T09:57:24.071+00:00</time>
      </trkpt>
      <trkpt lat="45.70922" lon="-1.02826">
        <ele>9</ele>
        <time>2023-07-17T09:57:29.070+00:00</time>
      </trkpt>
      <trkpt lat="45.70919" lon="-1.02833">
        <ele>9</ele>
        <time>2023-07-17T09:57:33.071+00:00</time>
      </trkpt>
      <trkpt lat="45.70919" lon="-1.0284">
        <ele>9</ele>
        <time>2023-07-17T09:57:36.812+00:00</time>
      </trkpt>
      <trkpt lat="45.70919" lon="-1.02842">
        <ele>9</ele>
        <time>2023-07-17T09:57:41.874+00:00</time>
      </trkpt>
      <trkpt lat="45.7092" lon="-1.02846">
        <ele>9</ele>
        <time>2023-07-17T09:57:45.634+00:00</time>
      </trkpt>
      <trkpt lat="45.70921" lon="-1.02849">
        <ele>9</ele>
        <time>2023-07-17T09:57:51.070+00:00</time>
      </trkpt>
      <trkpt lat="45.70921" lon="-1.02854">
        <ele>9</ele>
        <time>2023-07-17T09:57:56.075+00:00</time>
      </trkpt>
      <trkpt lat="45.70922" lon="-1.02854">
        <ele>9</ele>
        <time>2023-07-17T09:58:01.077+00:00</time>
      </trkpt>
      <trkpt lat="45.70921" lon="-1.02856">
        <ele>9</ele>
        <time>2023-07-17T09:58:06.064+00:00</time>
      </trkpt>
      <trkpt lat="45.70917" lon="-1.02857">
        <ele>9</ele>
        <time>2023-07-17T09:58:10.067+00:00</time>
      </trkpt>
      <trkpt lat="45.70914" lon="-1.02858">
        <ele>9</ele>
        <time>2023-07-17T09:58:14.066+00:00</time>
      </trkpt>
      <trkpt lat="45.7091" lon="-1.02862">
        <ele>9</ele>
        <time>2023-07-17T09:58:18.077+00:00</time>
      </trkpt>
      <trkpt lat="45.7091" lon="-1.02875">
        <ele>9</ele>
        <time>2023-07-17T09:58:51.073+00:00</time>
      </trkpt>
      <trkpt lat="45.70914" lon="-1.02874">
        <ele>9</ele>
        <time>2023-07-17T09:58:55.073+00:00</time>
      </trkpt>
      <trkpt lat="45.70919" lon="-1.0287">
        <ele>9</ele>
        <time>2023-07-17T09:59:00.070+00:00</time>
      </trkpt>
      <trkpt lat="45.70924" lon="-1.02865">
        <ele>9</ele>
        <time>2023-07-17T09:59:05.068+00:00</time>
      </trkpt>
      <trkpt lat="45.70932" lon="-1.02857">
        <ele>10</ele>
        <time>2023-07-17T09:59:10.068+00:00</time>
      </trkpt>
      <trkpt lat="45.70939" lon="-1.02858">
        <ele>10</ele>
        <time>2023-07-17T10:01:01.080+00:00</time>
      </trkpt>
      <trkpt lat="45.70925" lon="-1.02864">
        <ele>9</ele>
        <time>2023-07-17T10:01:05.095+00:00</time>
      </trkpt>
      <trkpt lat="45.70919" lon="-1.02871">
        <ele>9</ele>
        <time>2023-07-17T10:01:09.423+00:00</time>
      </trkpt>
      <trkpt lat="45.70914" lon="-1.02876">
        <ele>8</ele>
        <time>2023-07-17T10:01:13.264+00:00</time>
      </trkpt>
      <trkpt lat="45.70909" lon="-1.02878">
        <ele>8</ele>
        <time>2023-07-17T10:01:17.823+00:00</time>
      </trkpt>
      <trkpt lat="45.70903" lon="-1.02882">
        <ele>8</ele>
        <time>2023-07-17T10:01:22.184+00:00</time>
      </trkpt>
      <trkpt lat="45.70896" lon="-1.02887">
        <ele>8</ele>
        <time>2023-07-17T10:01:26.554+00:00</time>
      </trkpt>
      <trkpt lat="45.70887" lon="-1.02894">
        <ele>8</ele>
        <time>2023-07-17T10:01:30.902+00:00</time>
      </trkpt>
      <trkpt lat="45.70882" lon="-1.02897">
        <ele>8</ele>
        <time>2023-07-17T10:01:35.253+00:00</time>
      </trkpt>
      <trkpt lat="45.70878" lon="-1.02903">
        <ele>8</ele>
        <time>2023-07-17T10:01:39.635+00:00</time>
      </trkpt>
      <trkpt lat="45.70875" lon="-1.0291">
        <ele>8</ele>
        <time>2023-07-17T10:01:43.882+00:00</time>
      </trkpt>
      <trkpt lat="45.70873" lon="-1.02918">
        <ele>7</ele>
        <time>2023-07-17T10:01:48.159+00:00</time>
      </trkpt>
      <trkpt lat="45.7087" lon="-1.02925">
        <ele>7</ele>
        <time>2023-07-17T10:01:52.477+00:00</time>
      </trkpt>
      <trkpt lat="45.70865" lon="-1.0293">
        <ele>7</ele>
        <time>2023-07-17T10:01:57.034+00:00</time>
      </trkpt>
      <trkpt lat="45.70861" lon="-1.02935">
        <ele>7</ele>
        <time>2023-07-17T10:02:01.230+00:00</time>
      </trkpt>
      <trkpt lat="45.70858" lon="-1.02938">
        <ele>7</ele>
        <time>2023-07-17T10:02:05.264+00:00</time>
      </trkpt>
      <trkpt lat="45.70853" lon="-1.02938">
        <ele>7</ele>
        <time>2023-07-17T10:02:09.805+00:00</time>
      </trkpt>
      <trkpt lat="45.70847" lon="-1.02942">
        <ele>7</ele>
        <time>2023-07-17T10:02:14.608+00:00</time>
      </trkpt>
      <trkpt lat="45.7084" lon="-1.02949">
        <ele>7</ele>
        <time>2023-07-17T10:02:19.770+00:00</time>
      </trkpt>
      <trkpt lat="45.70837" lon="-1.02955">
        <ele>7</ele>
        <time>2023-07-17T10:02:23.891+00:00</time>
      </trkpt>
      <trkpt lat="45.70832" lon="-1.02957">
        <ele>7</ele>
        <time>2023-07-17T10:02:27.830+00:00</time>
      </trkpt>
      <trkpt lat="45.70827" lon="-1.0296">
        <ele>7</ele>
        <time>2023-07-17T10:02:32.409+00:00</time>
      </trkpt>
      <trkpt lat="45.70822" lon="-1.02964">
        <ele>7</ele>
        <time>2023-07-17T10:02:36.809+00:00</time>
      </trkpt>
      <trkpt lat="45.70819" lon="-1.02969">
        <ele>6</ele>
        <time>2023-07-17T10:02:41.007+00:00</time>
      </trkpt>
      <trkpt lat="45.7082" lon="-1.02974">
        <ele>7</ele>
        <time>2023-07-17T10:02:45.114+00:00</time>
      </trkpt>
      <trkpt lat="45.70822" lon="-1.02977">
        <ele>7</ele>
        <time>2023-07-17T10:02:49.605+00:00</time>
      </trkpt>
      <trkpt lat="45.70822" lon="-1.02977">
        <ele>7</ele>
        <time>2023-07-17T10:02:53.803+00:00</time>
      </trkpt>
      <trkpt lat="45.70821" lon="-1.02983">
        <ele>7</ele>
        <time>2023-07-17T10:02:58.440+00:00</time>
      </trkpt>
      <trkpt lat="45.70818" lon="-1.02989">
        <ele>6</ele>
        <time>2023-07-17T10:03:02.498+00:00</time>
      </trkpt>
      <trkpt lat="45.70814" lon="-1.02998">
        <ele>6</ele>
        <time>2023-07-17T10:03:06.501+00:00</time>
      </trkpt>
      <trkpt lat="45.70808" lon="-1.03002">
        <ele>6</ele>
        <time>2023-07-17T10:03:10.981+00:00</time>
      </trkpt>
      <trkpt lat="45.70802" lon="-1.03006">
        <ele>6</ele>
        <time>2023-07-17T10:03:15.122+00:00</time>
      </trkpt>
      <trkpt lat="45.70796" lon="-1.03007">
        <ele>6</ele>
        <time>2023-07-17T10:03:18.802+00:00</time>
      </trkpt>
      <trkpt lat="45.70789" lon="-1.03006">
        <ele>5</ele>
        <time>2023-07-17T10:03:23.421+00:00</time>
      </trkpt>
      <trkpt lat="45.70783" lon="-1.03006">
        <ele>5</ele>
        <time>2023-07-17T10:03:27.919+00:00</time>
      </trkpt>
      <trkpt lat="45.70778" lon="-1.0301">
        <ele>5</ele>
        <time>2023-07-17T10:03:32.324+00:00</time>
      </trkpt>
      <trkpt lat="45.70774" lon="-1.03016">
        <ele>5</ele>
        <time>2023-07-17T10:03:36.627+00:00</time>
      </trkpt>
      <trkpt lat="45.7077" lon="-1.03022">
        <ele>5</ele>
        <time>2023-07-17T10:03:40.898+00:00</time>
      </trkpt>
      <trkpt lat="45.70767" lon="-1.03027">
        <ele>5</ele>
        <time>2023-07-17T10:03:45.010+00:00</time>
      </trkpt>
      <trkpt lat="45.70763" lon="-1.03034">
        <ele>4</ele>
        <time>2023-07-17T10:03:49.452+00:00</time>
      </trkpt>
      <trkpt lat="45.70759" lon="-1.03039">
        <ele>4</ele>
        <time>2023-07-17T10:03:53.805+00:00</time>
      </trkpt>
      <trkpt lat="45.70758" lon="-1.03045">
        <ele>4</ele>
        <time>2023-07-17T10:03:58.374+00:00</time>
      </trkpt>
      <trkpt lat="45.70758" lon="-1.03052">
        <ele>4</ele>
        <time>2023-07-17T10:04:02.929+00:00</time>
      </trkpt>
      <trkpt lat="45.7076" lon="-1.03058">
        <ele>4</ele>
        <time>2023-07-17T10:04:06.795+00:00</time>
      </trkpt>
      <trkpt lat="45.70761" lon="-1.03064">
        <ele>4</ele>
        <time>2023-07-17T10:04:11.264+00:00</time>
      </trkpt>
      <trkpt lat="45.70762" lon="-1.0307">
        <ele>4</ele>
        <time>2023-07-17T10:04:15.727+00:00</time>
      </trkpt>
      <trkpt lat="45.70764" lon="-1.03076">
        <ele>4</ele>
        <time>2023-07-17T10:04:20.112+00:00</time>
      </trkpt>
      <trkpt lat="45.70765" lon="-1.03083">
        <ele>4</ele>
        <time>2023-07-17T10:04:23.945+00:00</time>
      </trkpt>
      <trkpt lat="45.70765" lon="-1.03087">
        <ele>4</ele>
        <time>2023-07-17T10:04:28.382+00:00</time>
      </trkpt>
      <trkpt lat="45.70765" lon="-1.03086">
        <ele>4</ele>
        <time>2023-07-17T10:04:55.123+00:00</time>
      </trkpt>
      <trkpt lat="45.70763" lon="-1.03083">
        <ele>4</ele>
        <time>2023-07-17T10:04:59.950+00:00</time>
      </trkpt>
      <trkpt lat="45.70761" lon="-1.03078">
        <ele>4</ele>
        <time>2023-07-17T10:05:04.489+00:00</time>
      </trkpt>
      <trkpt lat="45.70759" lon="-1.03072">
        <ele>4</ele>
        <time>2023-07-17T10:05:08.460+00:00</time>
      </trkpt>
      <trkpt lat="45.70757" lon="-1.03065">
        <ele>4</ele>
        <time>2023-07-17T10:05:12.895+00:00</time>
      </trkpt>
      <trkpt lat="45.70755" lon="-1.03058">
        <ele>4</ele>
        <time>2023-07-17T10:05:17.471+00:00</time>
      </trkpt>
      <trkpt lat="45.70755" lon="-1.03051">
        <ele>4</ele>
        <time>2023-07-17T10:05:21.845+00:00</time>
      </trkpt>
      <trkpt lat="45.70756" lon="-1.03044">
        <ele>4</ele>
        <time>2023-07-17T10:05:26.264+00:00</time>
      </trkpt>
      <trkpt lat="45.70758" lon="-1.03037">
        <ele>4</ele>
        <time>2023-07-17T10:05:30.818+00:00</time>
      </trkpt>
      <trkpt lat="45.70758" lon="-1.03027">
        <ele>4</ele>
        <time>2023-07-17T10:05:35.395+00:00</time>
      </trkpt>
      <trkpt lat="45.70754" lon="-1.03023">
        <ele>4</ele>
        <time>2023-07-17T10:05:39.236+00:00</time>
      </trkpt>
      <trkpt lat="45.70751" lon="-1.03017">
        <ele>4</ele>
        <time>2023-07-17T10:05:43.214+00:00</time>
      </trkpt>
      <trkpt lat="45.70748" lon="-1.03012">
        <ele>5</ele>
        <time>2023-07-17T10:05:47.264+00:00</time>
      </trkpt>
    </trkseg>
  </trk>
</gpx>